M I D A S
Marine Information and Data Acquisition System
Tripno 1747 of the Zeeleeuw from 2009-08-12 06:34:27 to 2009-08-12 12:35:58
Back to CruiseResearch ActivitiesStationsMapUnderway DataData graphs

EquipmentUnitsComment
TimeDGPSUTC
LatitudeDGPSDM.mWGS84
LongitudeDGPSDM.mWGS84
TemperatureSBE03/SBE38deg celciusITS90
ConductivitySBE21S/mITS90
SalinitySBE21 Practical Salinity Units
ChlorophylAChelsea fluorimeterg/lCalibrated in Aceton
Missing or incorrect values are displayed as -999
Sea surface data collected by the RV Zeeleeuw from 2009-08-12 06:28:51 to 2009-08-12 12:41:58
                                                                                    Next 1000 lines
Time Latitude Longitude Temperature Conductivity Salinity ChlorophylA
2009-08-12 06:29:00 51°13.685 2°55.91 22.9816 0.236315 1.247567 23.863806
2009-08-12 06:29:05 51°13.685 2°55.91 22.9824 0.235286 1.241845 23.863806
2009-08-12 06:29:10 51°13.685 2°55.91 22.9839 0.233536 1.23214 23.828982
2009-08-12 06:29:16 51°13.686 2°55.91 22.9837 0.233536 1.23214 23.828982
2009-08-12 06:29:20 51°13.686 2°55.91 22.9843 0.233433 1.231568 23.828982
2009-08-12 06:29:25 51°13.686 2°55.91 22.9849 0.234566 1.23788 23.828982
2009-08-12 06:29:30 51°13.686 2°55.91 22.985 0.234154 1.235611 23.828982
2009-08-12 06:29:35 51°13.685 2°55.91 22.9843 0.233742 1.233343 23.828982
2009-08-12 06:29:41 51°13.685 2°55.91 22.9843 0.233433 1.231608 23.794158
2009-08-12 06:29:45 51°13.686 2°55.91 22.9853 0.233433 1.231608 23.794158
2009-08-12 06:29:50 51°13.686 2°55.91 22.9856 0.23333 1.231056 23.828982
2009-08-12 06:29:55 51°13.686 2°55.91 22.9864 0.233021 1.22936 23.828982
2009-08-12 06:30:00 51°13.686 2°55.91 22.9862 0.232816 1.228216 23.794158
2009-08-12 06:30:05 51°13.686 2°55.91 22.9872 0.233845 1.233955 23.794158
2009-08-12 06:30:10 51°13.686 2°55.91 22.9868 0.232198 1.224805 23.794158
2009-08-12 06:30:15 51°13.686 2°55.91 22.9884 0.232198 1.224805 23.794158
2009-08-12 06:30:20 51°13.686 2°55.91 22.9887 0.232816 1.228256 23.794158
2009-08-12 06:30:25 51°13.686 2°55.91 22.9891 0.232713 1.227704 23.794158
2009-08-12 06:30:30 51°13.686 2°55.91 22.9892 0.233845 1.233995 23.759334
2009-08-12 06:30:35 51°13.686 2°55.909 22.9893 0.233021 1.229439 23.759334
2009-08-12 06:30:40 51°13.686 2°55.909 22.9895 0.233742 1.233463 23.759334
2009-08-12 06:30:45 51°13.686 2°55.909 22.9887 0.233742 1.233463 23.759334
2009-08-12 06:30:50 51°13.686 2°55.909 22.9891 0.233948 1.234607 23.759334
2009-08-12 06:30:55 51°13.686 2°55.909 22.99 0.232713 1.227763 23.759334
2009-08-12 06:31:00 51°13.686 2°55.91 22.9909 0.23261 1.227191 23.759334
2009-08-12 06:31:05 51°13.687 2°55.91 22.9922 0.232301 1.225496 23.72451
2009-08-12 06:31:10 51°13.687 2°55.91 22.9924 0.23261 1.227211 23.72451
2009-08-12 06:31:15 51°13.687 2°55.91 22.9929 0.23261 1.227211 23.72451
2009-08-12 06:31:20 51°13.687 2°55.91 22.9936 0.233639 1.232951 23.72451
2009-08-12 06:31:25 51°13.688 2°55.91 22.9929 0.233433 1.231806 23.72451
2009-08-12 06:31:30 51°13.688 2°55.91 22.994 0.233227 1.230682 23.72451
2009-08-12 06:31:35 51°13.688 2°55.91 22.9941 0.233433 1.231846 23.72451
2009-08-12 06:31:40 51°13.688 2°55.91 22.994 0.232404 1.226147 23.72451
2009-08-12 06:31:45 51°13.688 2°55.91 22.995 0.232404 1.226147 23.72451
2009-08-12 06:31:50 51°13.689 2°55.91 22.9958 0.233948 1.234726 23.689686
2009-08-12 06:31:55 51°13.689 2°55.91 22.9968 0.232816 1.228454 23.689686
2009-08-12 06:32:00 51°13.688 2°55.91 22.9965 0.232404 1.226167 23.689686
2009-08-12 06:32:05 51°13.688 2°55.91 22.9983 0.23333 1.231334 23.689686
2009-08-12 06:32:09 51°13.688 2°55.91 22.9989 0.233742 1.233642 23.689686
2009-08-12 06:32:15 51°13.688 2°55.91 22.9983 0.233742 1.233642 23.689686
2009-08-12 06:32:20 51°13.688 2°55.91 22.9982 0.233433 1.231926 23.654862
2009-08-12 06:32:25 51°13.688 2°55.91 22.999 0.23333 1.231374 23.689686
2009-08-12 06:32:31 51°13.688 2°55.91 22.9996 0.232198 1.225102 23.654862
2009-08-12 06:32:35 51°13.689 2°55.91 22.9996 0.232198 1.225102 23.654862
2009-08-12 06:32:40 51°13.689 2°55.91 23 0.231683 1.222243 23.654862
2009-08-12 06:32:45 51°13.689 2°55.91 23.0009 0.231683 1.222243 23.654862
2009-08-12 06:32:51 51°13.689 2°55.91 23.0013 0.232198 1.225122 23.654862
2009-08-12 06:32:55 51°13.689 2°55.91 23.0017 0.231992 1.223998 23.620038
2009-08-12 06:33:00 51°13.689 2°55.91 23.0027 0.233124 1.230309 23.620038
2009-08-12 06:33:05 51°13.689 2°55.91 23.0039 0.231889 1.223446 23.654862
2009-08-12 06:33:10 51°13.689 2°55.91 23.0045 0.232713 1.228041 23.620038
2009-08-12 06:33:15 51°13.688 2°55.91 23.0044 0.232713 1.228041 23.620038
2009-08-12 06:33:20 51°13.688 2°55.91 23.0033 0.232713 1.228041 23.620038
2009-08-12 06:33:25 51°13.688 2°55.91 23.0023 0.232507 1.226917 23.620038
2009-08-12 06:33:30 51°13.688 2°55.91 23.002 0.23436 1.237235 23.620038
2009-08-12 06:33:35 51°13.688 2°55.91 23.0033 0.233227 1.230961 23.620038
2009-08-12 06:33:41 51°13.688 2°55.91 23.0041 0.233021 1.229816 23.585214
2009-08-12 06:33:45 51°13.688 2°55.91 23.0045 0.233021 1.229816 23.585214
2009-08-12 06:33:50 51°13.689 2°55.91 23.0055 0.231683 1.222401 23.585214
2009-08-12 06:33:55 51°13.689 2°55.911 23.0068 0.231477 1.221257 23.585214
2009-08-12 06:34:01 51°13.689 2°55.911 23.0082 0.231992 1.224136 23.585214
2009-08-12 06:34:05 51°13.689 2°55.911 23.0089 0.231477 1.221277 23.585214
2009-08-12 06:34:10 51°13.689 2°55.91 23.0103 0.231477 1.221297 23.55039
2009-08-12 06:34:15 51°13.688 2°55.91 23.011 0.231477 1.221297 23.55039
2009-08-12 06:34:21 51°13.688 2°55.91 23.0125 0.233022 1.229896 23.585214
2009-08-12 06:34:25 51°13.688 2°55.91 23.0136 0.230139 1.213884 23.55039
2009-08-12 06:34:30 51°13.688 2°55.911 23.0151 0.232198 1.225339 23.585214
2009-08-12 06:34:35 51°13.688 2°55.911 23.0159 0.230448 1.215618 23.55039
2009-08-12 06:34:40 51°13.688 2°55.911 23.0174 0.229728 1.211637 23.55039
2009-08-12 06:34:45 51°13.688 2°55.911 23.0186 0.229728 1.211637 23.55039
2009-08-12 06:34:50 51°13.688 2°55.911 23.019 0.22911 1.208207 23.55039
2009-08-12 06:34:55 51°13.688 2°55.911 23.0198 0.230242 1.214514 23.55039
2009-08-12 06:35:00 51°13.688 2°55.911 23.0201 0.230345 1.215105 23.515566
2009-08-12 06:35:05 51°13.688 2°55.911 23.0204 0.230345 1.215105 23.515566
2009-08-12 06:35:10 51°13.688 2°55.911 23.0211 0.230654 1.21684 23.515566
2009-08-12 06:35:15 51°13.688 2°55.911 23.0217 0.230654 1.21684 23.515566
2009-08-12 06:35:20 51°13.688 2°55.911 23.0218 0.228389 1.204266 23.515566
2009-08-12 06:35:25 51°13.688 2°55.911 23.0224 0.23086 1.218003 23.515566
2009-08-12 06:35:31 51°13.687 2°55.911 23.0225 0.231477 1.221454 23.515566
2009-08-12 06:35:35 51°13.687 2°55.911 23.0219 0.230551 1.216308 23.515566
2009-08-12 06:35:40 51°13.687 2°55.911 23.021 0.229625 1.211163 23.480742
2009-08-12 06:35:45 51°13.687 2°55.91 23.0206 0.229625 1.211163 23.480742
2009-08-12 06:35:50 51°13.687 2°55.91 23.021 0.230963 1.218615 23.480742
2009-08-12 06:35:55 51°13.686 2°55.91 23.0225 0.23158 1.222066 23.480742
2009-08-12 06:36:01 51°13.686 2°55.91 23.0233 0.228595 1.205487 23.480742
2009-08-12 06:36:05 51°13.686 2°55.91 23.0243 0.228492 1.204935 23.480742
2009-08-12 06:36:10 51°13.686 2°55.91 23.0248 0.228698 1.206078 23.480742
2009-08-12 06:36:15 51°13.687 2°55.91 23.0265 0.228698 1.206078 23.480742
2009-08-12 06:36:20 51°13.687 2°55.91 23.0269 0.228698 1.206097 23.445918
2009-08-12 06:36:25 51°13.687 2°55.91 23.0265 0.229933 1.212956 23.445918
2009-08-12 06:36:30 51°13.687 2°55.91 23.0265 0.228184 1.203259 23.445918
2009-08-12 06:36:35 51°13.687 2°55.91 23.0262 0.230654 1.216997 23.445918
2009-08-12 06:36:40 51°13.686 2°55.91 23.0262 0.234463 1.238167 23.445918
2009-08-12 06:36:45 51°13.686 2°55.91 23.0253 0.234463 1.238167 23.445918
2009-08-12 06:36:50 51°13.687 2°55.911 23.0251 0.234463 1.238187 23.445918
2009-08-12 06:36:55 51°13.687 2°55.911 23.0261 0.229419 1.210176 23.445918
2009-08-12 06:37:00 51°13.687 2°55.911 23.0265 0.232919 1.229622 23.411093
2009-08-12 06:37:05 51°13.687 2°55.911 23.0277 0.23158 1.222204 23.411093
2009-08-12 06:37:10 51°13.687 2°55.911 23.0289 0.229933 1.213074 23.411093
2009-08-12 06:37:15 51°13.687 2°55.911 23.0296 0.229933 1.213074 23.411093
2009-08-12 06:37:20 51°13.687 2°55.911 23.0312 0.233124 1.230826 23.411093
2009-08-12 06:37:25 51°13.687 2°55.911 23.0336 0.230551 1.216524 23.411093
2009-08-12 06:37:30 51°13.687 2°55.911 23.0352 0.228801 1.206824 23.411093
2009-08-12 06:37:35 51°13.686 2°55.91 23.0385 0.229625 1.211397 23.376269
2009-08-12 06:37:40 51°13.686 2°55.91 23.0402 0.227978 1.202272 23.376269
2009-08-12 06:37:45 51°13.686 2°55.91 23.0415 0.227978 1.202272 23.376269
2009-08-12 06:37:50 51°13.686 2°55.91 23.0428 0.229625 1.211437 23.376269
2009-08-12 06:37:55 51°13.686 2°55.91 23.0445 0.227257 1.198292 23.376269
2009-08-12 06:38:00 51°13.686 2°55.91 23.0454 0.227566 1.200025 23.376269
2009-08-12 06:38:05 51°13.686 2°55.91 23.0445 0.228698 1.206331 23.376269
2009-08-12 06:38:09 51°13.686 2°55.91 23.0442 0.229728 1.212048 23.376269
2009-08-12 06:38:16 51°13.686 2°55.91 23.043 0.229728 1.212048 23.376269
2009-08-12 06:38:20 51°13.685 2°55.91 23.0425 0.228801 1.206922 23.341445
2009-08-12 06:38:25 51°13.685 2°55.91 23.043 0.230757 1.217786 23.376269
2009-08-12 06:38:29 51°13.685 2°55.91 23.0423 0.229316 1.2098 23.341445
2009-08-12 06:38:35 51°13.685 2°55.91 23.0408 0.229316 1.2098 23.341445
2009-08-12 06:38:40 51°13.685 2°55.91 23.0364 0.227566 1.200103 23.341445
2009-08-12 06:38:45 51°13.685 2°55.91 23.0278 0.227566 1.200103 23.341445
2009-08-12 06:38:50 51°13.685 2°55.909 23.0016 0.226537 1.194408 23.341445
2009-08-12 06:38:55 51°13.685 2°55.908 23.1338 0.2463 1.304408 23.306621
2009-08-12 06:39:00 51°13.685 2°55.907 23.1321 0.27502 1.465405 23.306621
2009-08-12 06:39:05 51°13.686 2°55.904 23.1237 0.263903 1.402961 23.306621
2009-08-12 06:39:10 51°13.687 2°55.901 23.1199 0.272962 1.453851 23.306621
2009-08-12 06:39:15 51°13.688 2°55.898 23.1328 0.272962 1.453851 23.306621
2009-08-12 06:39:20 51°13.689 2°55.893 23.1238 0.263594 1.401252 23.306621
2009-08-12 06:39:25 51°13.69 2°55.889 23.1363 0.265653 1.412824 23.306621
2009-08-12 06:39:31 51°13.691 2°55.883 23.1285 0.267712 1.424403 23.306621
2009-08-12 06:39:36 51°13.692 2°55.878 23.1208 0.2673 1.422114 23.271797
2009-08-12 06:39:42 51°13.693 2°55.871 23.1149 0.273167 1.455079 23.271797
2009-08-12 06:39:48 51°13.695 2°55.864 23.1136 0.273167 1.455079 23.271797
2009-08-12 06:39:53 51°13.695 2°55.859 23.1129 0.264212 1.404807 23.271797
2009-08-12 06:39:59 51°13.696 2°55.851 23.1114 0.269976 1.437191 23.271797
2009-08-12 06:40:04 51°13.697 2°55.845 23.1111 0.266476 1.41756 23.271797
2009-08-12 06:40:09 51°13.698 2°55.839 23.1125 0.268432 1.428564 23.271797
2009-08-12 06:40:14 51°13.698 2°55.833 23.1129 0.2708 1.441865 23.271797
2009-08-12 06:40:19 51°13.698 2°55.827 23.1127 0.2708 1.441865 23.271797
2009-08-12 06:40:24 51°13.699 2°55.821 23.1108 0.267094 1.421073 23.236973
2009-08-12 06:40:29 51°13.699 2°55.815 23.1098 0.270594 1.440755 23.236973
2009-08-12 06:40:34 51°13.699 2°55.809 23.1082 0.268123 1.426876 23.236973
2009-08-12 06:40:39 51°13.699 2°55.804 23.1081 0.269976 1.437308 23.236973
2009-08-12 06:40:44 51°13.699 2°55.798 23.1071 0.272859 1.453531 23.236973
2009-08-12 06:40:49 51°13.699 2°55.793 23.11 0.272859 1.453531 23.236973
2009-08-12 06:40:54 51°13.699 2°55.787 23.1115 0.265138 1.410164 23.202149
2009-08-12 06:40:59 51°13.699 2°55.783 23.1126 0.276667 1.474982 23.236973
2009-08-12 06:41:04 51°13.699 2°55.78 23.1211 0.279859 1.492974 23.202149
2009-08-12 06:41:09 51°13.699 2°55.778 23.125 0.248565 1.317414 23.202149
2009-08-12 06:41:14 51°13.699 2°55.777 23.1256 0.243727 1.290425 23.202149
2009-08-12 06:41:19 51°13.699 2°55.776 23.1156 0.243727 1.290425 23.202149
2009-08-12 06:41:23 51°13.7 2°55.776 23.1129 0.250212 1.32666 23.202149
2009-08-12 06:41:28 51°13.7 2°55.775 23.1063 0.245065 1.297935 23.202149
2009-08-12 06:41:33 51°13.7 2°55.774 23.1047 0.251859 1.335911 23.202149
2009-08-12 06:41:37 51°13.7 2°55.773 23.1011 0.248565 1.317499 23.167325
2009-08-12 06:41:42 51°13.699 2°55.771 23.0997 0.244139 1.292806 23.167325
2009-08-12 06:41:48 51°13.699 2°55.769 23.0997 0.244139 1.292806 23.167325
2009-08-12 06:41:52 51°13.698 2°55.768 23.0985 0.248359 1.316392 23.167325
2009-08-12 06:41:57 51°13.697 2°55.766 23.1 0.245683 1.301445 23.167325
2009-08-12 06:42:02 51°13.696 2°55.763 23.1 0.246918 1.308342 23.167325
2009-08-12 06:42:06 51°13.695 2°55.761 23.1042 0.243727 1.29053 23.167325
2009-08-12 06:42:12 51°13.693 2°55.759 23.1104 0.24733 1.310663 23.132501
2009-08-12 06:42:16 51°13.692 2°55.757 23.1274 0.24733 1.310663 23.132501
2009-08-12 06:42:21 51°13.691 2°55.755 23.1525 0.266167 1.416171 23.132501
2009-08-12 06:42:27 51°13.691 2°55.754 23.1443 0.256388 1.361343 23.132501
2009-08-12 06:42:32 51°13.692 2°55.754 23.1441 0.259579 1.379218 23.132501
2009-08-12 06:42:37 51°13.693 2°55.754 23.1841 0.247021 1.309002 23.132501
2009-08-12 06:42:41 51°13.694 2°55.754 23.1871 0.248462 1.317095 23.132501
2009-08-12 06:42:46 51°13.696 2°55.754 23.1943 0.248462 1.317095 23.132501
2009-08-12 06:42:51 51°13.699 2°55.753 23.1884 0.397327 2.164152 23.132501
2009-08-12 06:42:56 51°13.702 2°55.752 23.1837 0.469817 2.586319 23.132501
2009-08-12 06:43:01 51°13.705 2°55.751 23.1841 0.4727 2.603338 23.097677
2009-08-12 06:43:05 51°13.707 2°55.749 23.2091 0.583409 3.257873 23.097677
2009-08-12 06:43:10 51°13.711 2°55.747 23.2092 0.691873 3.909411 23.097677
2009-08-12 06:43:15 51°13.714 2°55.744 23.2037 0.691873 3.909411 23.097677
2009-08-12 06:43:20 51°13.718 2°55.74 23.1948 0.691873 3.909475 23.097677
2009-08-12 06:43:25 51°13.722 2°55.737 23.1912 0.704235 3.984344 23.097677
2009-08-12 06:43:30 51°13.726 2°55.733 23.1829 0.708871 4.01236 23.062853
2009-08-12 06:43:35 51°13.731 2°55.728 23.1763 0.712992 4.037268 23.062853
2009-08-12 06:43:40 51°13.735 2°55.724 23.1674 0.704647 3.986644 23.062853
2009-08-12 06:43:45 51°13.74 2°55.719 23.164 0.704647 3.986644 23.062853
2009-08-12 06:43:50 51°13.744 2°55.714 23.1584 0.705884 3.994066 23.062853
2009-08-12 06:43:55 51°13.749 2°55.709 23.1564 0.706399 3.99712 23.062853
2009-08-12 06:44:00 51°13.754 2°55.704 23.1562 0.706605 3.998368 23.062853
2009-08-12 06:44:05 51°13.759 2°55.699 23.1566 0.709283 4.01466 23.062853
2009-08-12 06:44:10 51°13.764 2°55.693 23.1561 0.708047 4.007236 23.028029
2009-08-12 06:44:15 51°13.769 2°55.688 23.1555 0.708047 4.007236 23.028029
2009-08-12 06:44:20 51°13.774 2°55.683 23.1548 0.707017 4.00106 23.028029
2009-08-12 06:44:25 51°13.78 2°55.677 23.1537 0.710107 4.019785 23.028029
2009-08-12 06:44:30 51°13.785 2°55.672 23.1538 0.71124 4.026785 23.028029
2009-08-12 06:44:35 51°13.791 2°55.667 23.1523 0.707738 4.005625 23.028029
2009-08-12 06:44:41 51°13.797 2°55.661 23.149 0.714743 4.048217 23.028029
2009-08-12 06:44:45 51°13.802 2°55.657 23.1461 0.714743 4.048217 23.028029
2009-08-12 06:44:50 51°13.808 2°55.652 23.1461 0.717525 4.065153 23.028029
2009-08-12 06:44:55 51°13.813 2°55.647 23.1429 0.716494 4.05897 22.993205
2009-08-12 06:45:00 51°13.819 2°55.643 23.1362 0.632025 3.549305 22.993205
2009-08-12 06:45:05 51°13.824 2°55.639 23.1217 0.689401 3.894846 22.993205
2009-08-12 06:45:10 51°13.83 2°55.635 23.1151 0.679924 3.837649 22.993205
2009-08-12 06:45:15 51°13.836 2°55.632 23.098 0.679924 3.837649 22.993205
2009-08-12 06:45:21 51°13.842 2°55.629 23.0957 0.693007 3.916775 22.993205
2009-08-12 06:45:25 51°13.847 2°55.627 23.1112 0.693419 3.919267 22.993205
2009-08-12 06:45:30 51°13.852 2°55.626 23.1125 0.689298 3.894414 22.993205
2009-08-12 06:45:35 51°13.857 2°55.626 23.1042 0.701866 3.970516 22.958381
2009-08-12 06:45:41 51°13.863 2°55.626 23.1284 0.705677 3.993601 22.958381
2009-08-12 06:45:45 51°13.867 2°55.627 23.1316 0.705677 3.993601 22.958381
2009-08-12 06:45:50 51°13.872 2°55.628 23.1392 0.719997 4.080553 22.958381
2009-08-12 06:45:55 51°13.877 2°55.629 23.17 0.706708 4.000038 22.958381
2009-08-12 06:46:00 51°13.882 2°55.631 23.1772 0.718658 4.07256 22.958381
2009-08-12 06:46:05 51°13.887 2°55.632 23.2102 0.687032 3.881158 22.958381
2009-08-12 06:46:10 51°13.892 2°55.633 23.2034 0.689607 3.896791 22.958381
2009-08-12 06:46:15 51°13.897 2°55.634 23.2066 0.689607 3.896791 22.958381
2009-08-12 06:46:20 51°13.901 2°55.634 23.2024 0.66612 3.755047 22.923557
2009-08-12 06:46:25 51°13.906 2°55.634 23.1923 0.675597 3.812279 22.923557
2009-08-12 06:46:30 51°13.91 2°55.633 23.1749 0.671374 3.786916 22.923557
2009-08-12 06:46:35 51°13.914 2°55.633 23.1667 0.673331 3.798788 22.923557
2009-08-12 06:46:40 51°13.919 2°55.632 23.1636 0.678276 3.828636 22.888733
2009-08-12 06:46:45 51°13.923 2°55.631 23.1634 0.678276 3.828636 22.888733
2009-08-12 06:46:50 51°13.926 2°55.63 23.1653 0.666326 3.756596 22.923557
2009-08-12 06:46:55 51°13.93 2°55.629 23.1677 0.675906 3.814394 22.923557
2009-08-12 06:47:01 51°13.935 2°55.628 23.1666 0.67261 3.79456 22.888733
2009-08-12 06:47:05 51°13.937 2°55.627 23.1682 0.677967 3.826895 22.888733
2009-08-12 06:47:10 51°13.941 2°55.626 23.1635 0.670653 3.782751 22.888733
2009-08-12 06:47:15 51°13.944 2°55.624 23.1584 0.670653 3.782751 22.888733
2009-08-12 06:47:21 51°13.948 2°55.622 23.1588 0.663854 3.741814 22.888733
2009-08-12 06:47:25 51°13.95 2°55.621 23.1599 0.670035 3.779146 22.888733
2009-08-12 06:47:30 51°13.953 2°55.619 23.1565 0.66715 3.761749 22.888733
2009-08-12 06:47:35 51°13.956 2°55.618 23.1591 0.667253 3.762432 22.853909
2009-08-12 06:47:41 51°13.959 2°55.616 23.1612 0.665193 3.75001 22.888733
2009-08-12 06:47:45 51°13.961 2°55.614 23.163 0.665193 3.75001 22.888733
2009-08-12 06:47:50 51°13.964 2°55.613 23.1636 0.667562 3.764296 22.853909
2009-08-12 06:47:55 51°13.966 2°55.611 23.1674 0.662103 3.731382 22.853909
2009-08-12 06:48:00 51°13.969 2°55.609 23.1701 0.660146 3.719649 22.853909
2009-08-12 06:48:05 51°13.971 2°55.606 23.1722 0.657056 3.701033 22.853909
2009-08-12 06:48:10 51°13.974 2°55.604 23.1744 0.656953 3.700413 22.819085
2009-08-12 06:48:15 51°13.977 2°55.601 23.1711 0.656953 3.700413 22.819085
2009-08-12 06:48:20 51°13.98 2°55.598 23.1686 0.675906 3.814768 22.819085
2009-08-12 06:48:25 51°13.984 2°55.595 23.1703 0.658704 3.711082 22.819085
2009-08-12 06:48:30 51°13.988 2°55.592 23.1783 0.664163 3.743983 22.819085
2009-08-12 06:48:35 51°13.992 2°55.588 23.1831 0.653347 3.678824 22.819085
2009-08-12 06:48:41 51°13.997 2°55.583 23.1966 0.651802 3.669583 22.819085
2009-08-12 06:48:45 51°14.001 2°55.58 23.1942 0.651802 3.669583 22.819085
2009-08-12 06:48:50 51°14.006 2°55.574 23.1941 0.706914 4.002528 22.819085
2009-08-12 06:48:55 51°14.011 2°55.568 23.1761 0.701042 3.967147 22.819085
2009-08-12 06:49:01 51°14.017 2°55.56 23.1744 0.707738 4.007786 22.78426
2009-08-12 06:49:05 51°14.022 2°55.554 23.177 0.694037 3.924801 22.78426
2009-08-12 06:49:10 51°14.028 2°55.547 23.183 0.691255 3.908035 22.78426
2009-08-12 06:49:15 51°14.034 2°55.539 23.1891 0.691255 3.908035 22.78426
2009-08-12 06:49:21 51°14.042 2°55.529 23.1855 0.702896 3.978509 22.78426
2009-08-12 06:49:25 51°14.048 2°55.521 23.187 0.691564 3.909905 22.78426
2009-08-12 06:49:29 51°14.053 2°55.514 23.1874 0.70372 3.983567 22.749436
2009-08-12 06:49:35 51°14.062 2°55.503 23.1844 0.696509 3.939958 22.749436
2009-08-12 06:49:40 51°14.07 2°55.493 23.173 0.655201 3.69047 22.78426
2009-08-12 06:49:45 51°14.078 2°55.484 23.1644 0.655201 3.69047 22.78426
2009-08-12 06:49:50 51°14.087 2°55.473 23.1841 0.632128 3.551779 22.749436
2009-08-12 06:49:55 51°14.095 2°55.463 23.1684 0.627802 3.52581 22.749436
2009-08-12 06:50:00 51°14.104 2°55.453 23.1633 0.66406 3.744035 22.749436
2009-08-12 06:50:05 51°14.112 2°55.442 23.1715 0.681881 3.851608 22.749436
2009-08-12 06:50:10 51°14.121 2°55.431 23.1752 0.598241 3.348932 22.749436
2009-08-12 06:50:15 51°14.13 2°55.421 23.1791 0.598241 3.348932 22.749436
2009-08-12 06:50:20 51°14.139 2°55.41 23.1668 0.689607 3.898383 22.714612
2009-08-12 06:50:25 51°14.148 2°55.399 23.1888 0.697127 3.944022 22.714612
2009-08-12 06:50:30 51°14.157 2°55.388 23.1766 0.658807 3.712612 22.714612
2009-08-12 06:50:35 51°14.166 2°55.376 23.165 0.579599 3.237754 22.714612
2009-08-12 06:50:40 51°14.176 2°55.365 23.169 0.57311 3.199087 22.714612
2009-08-12 06:50:45 51°14.185 2°55.354 23.1989 0.57311 3.199087 22.714612
2009-08-12 06:50:50 51°14.194 2°55.342 23.1978 0.619047 3.473585 22.714612
2009-08-12 06:50:55 51°14.203 2°55.33 23.2137 0.617399 3.463764 22.679788
2009-08-12 06:51:00 51°14.212 2°55.318 23.2084 0.69414 3.92613 22.679788
2009-08-12 06:51:05 51°14.221 2°55.306 23.2296 0.663854 3.743221 22.679788
2009-08-12 06:51:10 51°14.229 2°55.293 23.2079 0.702484 3.976988 22.679788
2009-08-12 06:51:15 51°14.238 2°55.28 23.2233 0.702484 3.976988 22.679788
2009-08-12 06:51:20 51°14.246 2°55.266 23.2106 0.662515 3.73533 22.679788
2009-08-12 06:51:25 51°14.255 2°55.252 23.1979 0.671168 3.787591 22.679788
2009-08-12 06:51:30 51°14.263 2°55.238 23.2109 0.709077 4.01689 22.679788
2009-08-12 06:51:35 51°14.271 2°55.223 23.1975 0.627081 3.522232 22.644964
2009-08-12 06:51:40 51°14.279 2°55.208 23.1845 0.640677 3.603848 22.679788
2009-08-12 06:51:45 51°14.287 2°55.193 23.1686 0.640677 3.603848 22.679788
2009-08-12 06:51:50 51°14.295 2°55.178 23.1953 0.624609 3.50734 22.644964
2009-08-12 06:51:55 51°14.304 2°55.162 23.1658 0.602567 3.375348 22.644964
2009-08-12 06:52:01 51°14.313 2°55.143 23.1641 0.504212 2.791153 22.644964
2009-08-12 06:52:05 51°14.32 2°55.131 23.1923 0.609159 3.414742 22.644964
2009-08-12 06:52:10 51°14.329 2°55.114 23.1844 0.56518 3.152238 22.644964
2009-08-12 06:52:15 51°14.337 2°55.098 23.1998 0.56518 3.152238 22.644964
2009-08-12 06:52:20 51°14.346 2°55.081 23.1506 0.625948 3.515375 22.644964
2009-08-12 06:52:25 51°14.355 2°55.065 23.1689 0.422863 2.314717 22.61014
2009-08-12 06:52:30 51°14.365 2°55.049 23.1576 0.487529 2.692839 22.61014
2009-08-12 06:52:35 51°14.375 2°55.034 23.1723 0.371073 2.014927 22.61014
2009-08-12 06:52:41 51°14.388 2°55.016 23.1532 0.347187 1.877717 22.61014
2009-08-12 06:52:45 51°14.397 2°55.005 23.1922 0.347187 1.877717 22.61014
2009-08-12 06:52:50 51°14.408 2°54.991 23.1649 0.355629 1.926124 22.61014
2009-08-12 06:52:55 51°14.42 2°54.978 23.1992 0.380648 2.070174 22.575316
2009-08-12 06:53:00 51°14.433 2°54.966 23.2107 0.394753 2.151724 22.575316
2009-08-12 06:53:05 51°14.446 2°54.954 23.1829 0.477026 2.631348 22.575316
2009-08-12 06:53:10 51°14.458 2°54.941 23.1704 0.504727 2.794507 22.575316
2009-08-12 06:53:15 51°14.471 2°54.928 23.194 0.504727 2.794507 22.575316
2009-08-12 06:53:20 51°14.484 2°54.915 23.196 0.57311 3.20008 22.540492
2009-08-12 06:53:25 51°14.497 2°54.903 23.1838 0.512141 2.838442 22.540492
2009-08-12 06:53:30 51°14.511 2°54.89 23.1788 0.523161 2.903462 22.540492
2009-08-12 06:53:35 51°14.524 2°54.878 23.2022 0.563738 3.144327 22.540492
2009-08-12 06:53:40 51°14.538 2°54.865 23.1982 0.492472 2.722536 22.540492
2009-08-12 06:53:45 51°14.552 2°54.852 23.1918 0.492472 2.722536 22.540492
2009-08-12 06:53:50 51°14.565 2°54.839 23.1862 0.456637 2.512111 22.540492
2009-08-12 06:53:55 51°14.579 2°54.826 23.1905 0.456534 2.511509 22.540492
2009-08-12 06:54:00 51°14.593 2°54.813 23.1899 0.506477 2.804924 22.505668
2009-08-12 06:54:05 51°14.607 2°54.8 23.1919 0.444177 2.439214 22.505668
2009-08-12 06:54:09 51°14.618 2°54.79 23.1829 0.412051 2.252132 22.505668
2009-08-12 06:54:15 51°14.635 2°54.774 23.1904 0.412051 2.252132 22.505668
2009-08-12 06:54:21 51°14.652 2°54.759 23.1894 0.365719 1.984347 22.505668
2009-08-12 06:54:25 51°14.663 2°54.748 23.1916 0.40124 2.189377 22.470844
2009-08-12 06:54:30 51°14.677 2°54.735 23.1855 0.42626 2.33471 22.470844
2009-08-12 06:54:35 51°14.691 2°54.723 23.165 0.449326 2.469324 22.470844
2009-08-12 06:54:41 51°14.708 2°54.707 23.1889 0.357585 1.937573 22.470844
2009-08-12 06:54:45 51°14.719 2°54.697 23.1624 0.357585 1.937573 22.470844
2009-08-12 06:54:50 51°14.733 2°54.684 23.1718 0.324743 1.749541 22.470844
2009-08-12 06:54:55 51°14.747 2°54.671 23.1744 0.345643 1.868902 22.470844
2009-08-12 06:55:00 51°14.761 2°54.658 23.1733 0.406594 2.220222 22.43602
2009-08-12 06:55:05 51°14.775 2°54.645 23.1772 0.389399 2.121322 22.470844
2009-08-12 06:55:10 51°14.789 2°54.633 23.1688 0.340598 1.840625 22.43602
2009-08-12 06:55:15 51°14.802 2°54.621 23.1816 0.340598 1.840625 22.43602
2009-08-12 06:55:20 51°14.817 2°54.61 23.157 0.355526 1.925846 22.43602
2009-08-12 06:55:25 51°14.831 2°54.598 23.1729 0.28305 1.512746 22.43602
2009-08-12 06:55:30 51°14.845 2°54.586 23.1701 0.287374 1.536963 22.43602
2009-08-12 06:55:35 51°14.859 2°54.574 23.1503 0.289021 1.546321 22.43602
2009-08-12 06:55:40 51°14.873 2°54.562 23.1665 0.283668 1.516331 22.43602
2009-08-12 06:55:45 51°14.887 2°54.551 23.1668 0.283668 1.516331 22.43602
2009-08-12 06:55:51 51°14.904 2°54.537 23.1565 0.233948 1.237604 22.401196
2009-08-12 06:55:55 51°14.916 2°54.527 23.1627 0.187732 0.981906 22.43602
2009-08-12 06:56:00 51°14.93 2°54.515 23.1593 0.184232 0.962628 22.470844
2009-08-12 06:56:05 51°14.944 2°54.503 23.1649 0.190922 0.999287 22.43602
2009-08-12 06:56:10 51°14.958 2°54.491 23.1658 0.19504 1.021976 22.43602
2009-08-12 06:56:15 51°14.973 2°54.48 23.1676 0.19504 1.021976 22.43602
2009-08-12 06:56:21 51°14.99 2°54.465 23.1657 0.186188 0.973527 22.43602
2009-08-12 06:56:25 51°15.001 2°54.456 23.1697 0.192981 1.011223 22.43602
2009-08-12 06:56:30 51°15.015 2°54.444 23.1632 0.1866 0.976338 22.43602
2009-08-12 06:56:35 51°15.03 2°54.432 23.1633 0.176719 0.922248 22.43602
2009-08-12 06:56:41 51°15.047 2°54.418 23.165 0.151296 0.783923 22.401196
2009-08-12 06:56:45 51°15.058 2°54.409 23.1615 0.151296 0.783923 22.401196
2009-08-12 06:56:50 51°15.072 2°54.396 23.136 0.169205 0.881529 22.43602
2009-08-12 06:56:55 51°15.086 2°54.384 23.158 0.163853 0.852712 22.401196
2009-08-12 06:57:01 51°15.103 2°54.37 23.1696 0.160456 0.834144 22.401196
2009-08-12 06:57:05 51°15.114 2°54.36 23.1542 0.164882 0.85824 22.401196
2009-08-12 06:57:10 51°15.128 2°54.348 23.1495 0.152223 0.789428 22.401196
2009-08-12 06:57:15 51°15.142 2°54.336 23.1562 0.152223 0.789428 22.401196
2009-08-12 06:57:20 51°15.156 2°54.324 23.1583 0.147694 0.764969 22.401196
2009-08-12 06:57:25 51°15.17 2°54.312 23.155 0.158398 0.823064 22.401196
2009-08-12 06:57:30 51°15.183 2°54.3 23.1574 0.162309 0.844341 22.401196
2009-08-12 06:57:35 51°15.198 2°54.288 23.1642 0.156854 0.814643 22.401196
2009-08-12 06:57:40 51°15.212 2°54.276 23.1649 0.179395 0.937945 22.401196
2009-08-12 06:57:45 51°15.225 2°54.264 23.1566 0.179395 0.937945 22.401196
2009-08-12 06:57:50 51°15.239 2°54.252 23.1599 0.142239 0.73563 22.401196
2009-08-12 06:57:55 51°15.253 2°54.24 23.1589 0.144606 0.748428 22.366372
2009-08-12 06:58:00 51°15.267 2°54.227 23.1599 0.149341 0.774277 22.366372
2009-08-12 06:58:05 51°15.281 2°54.215 23.1707 0.149032 0.773053 22.366372
2009-08-12 06:58:11 51°15.298 2°54.201 23.1385 0.174969 0.914908 22.366372
2009-08-12 06:58:15 51°15.309 2°54.191 23.1559 0.174969 0.914908 22.366372
2009-08-12 06:58:20 51°15.323 2°54.179 23.1588 0.141725 0.734127 22.366372
2009-08-12 06:58:25 51°15.337 2°54.167 23.1361 0.148929 0.773093 22.331548
2009-08-12 06:58:29 51°15.348 2°54.157 23.1599 0.161692 0.842365 22.331548
2009-08-12 06:58:35 51°15.365 2°54.143 23.1592 0.138534 0.716258 22.331548
2009-08-12 06:58:40 51°15.379 2°54.131 23.1588 0.143989 0.745569 22.331548
2009-08-12 06:58:45 51°15.393 2°54.119 23.1571 0.143989 0.745569 22.331548
2009-08-12 06:58:50 51°15.406 2°54.107 23.1524 0.135138 0.697717 22.331548
2009-08-12 06:58:55 51°15.42 2°54.095 23.1655 0.138946 0.718284 22.331548
2009-08-12 06:59:00 51°15.434 2°54.083 23.1579 0.137093 0.708365 22.296724
2009-08-12 06:59:05 51°15.448 2°54.071 23.1598 0.160251 0.834115 22.331548
2009-08-12 06:59:09 51°15.46 2°54.061 23.1541 0.147694 0.766069 22.296724
2009-08-12 06:59:15 51°15.476 2°54.046 23.1631 0.147694 0.766069 22.296724
2009-08-12 06:59:20 51°15.49 2°54.034 23.1546 0.130403 0.672681 22.296724
2009-08-12 06:59:25 51°15.504 2°54.022 23.1687 0.158707 0.825877 22.296724
2009-08-12 06:59:30 51°15.518 2°54.01 23.1575 0.138019 0.713778 22.296724
2009-08-12 06:59:35 51°15.532 2°53.998 23.1536 0.143474 0.743528 22.2619
2009-08-12 06:59:40 51°15.546 2°53.985 23.1635 0.136579 0.70666 22.296724
2009-08-12 06:59:45 51°15.56 2°53.973 23.1592 0.136579 0.70666 22.296724
2009-08-12 06:59:50 51°15.574 2°53.961 23.1643 0.157883 0.82251 22.2619
2009-08-12 06:59:55 51°15.588 2°53.949 23.1445 0.148312 0.770626 22.2619
2009-08-12 07:00:00 51°15.602 2°53.937 23.1596 0.151193 0.786065 22.2619
2009-08-12 07:00:05 51°15.616 2°53.925 23.1736 0.136373 0.705422 22.2619
2009-08-12 07:00:10 51°15.63 2°53.913 23.1241 0.177233 0.927537 22.2619
2009-08-12 07:00:15 51°15.644 2°53.9 23.1511 0.177233 0.927537 22.2619
2009-08-12 07:00:20 51°15.657 2°53.888 23.1549 0.15634 0.813211 22.227076
2009-08-12 07:00:25 51°15.671 2°53.876 23.1532 0.14543 0.753941 22.227076
2009-08-12 07:00:31 51°15.688 2°53.861 23.157 0.13133 0.677766 22.227076
2009-08-12 07:00:35 51°15.699 2°53.85 23.1548 0.143989 0.746219 22.227076
2009-08-12 07:00:40 51°15.713 2°53.838 23.1485 0.145841 0.75638 22.192252
2009-08-12 07:00:45 51°15.726 2°53.826 23.1432 0.145841 0.75638 22.192252
2009-08-12 07:00:50 51°15.74 2°53.814 23.1554 0.12639 0.651445 22.192252
2009-08-12 07:00:55 51°15.754 2°53.801 23.1668 0.150267 0.780561 22.192252
2009-08-12 07:01:00 51°15.768 2°53.79 23.1541 0.137608 0.712072 22.192252
2009-08-12 07:01:05 51°15.782 2°53.777 23.1606 0.134417 0.695067 22.192252
2009-08-12 07:01:09 51°15.794 2°53.767 23.1488 0.138019 0.714447 22.157428
2009-08-12 07:01:16 51°15.813 2°53.751 23.1531 0.138019 0.714447 22.157428
2009-08-12 07:01:20 51°15.825 2°53.741 23.1413 0.141107 0.730891 22.157428
2009-08-12 07:01:25 51°15.839 2°53.729 23.158 0.139563 0.722516 22.157428
2009-08-12 07:01:30 51°15.853 2°53.717 23.1428 0.132976 0.686859 22.157428
2009-08-12 07:01:35 51°15.867 2°53.704 23.1591 0.134726 0.696295 22.122603
2009-08-12 07:01:40 51°15.88 2°53.692 23.155 0.128963 0.665337 22.122603
2009-08-12 07:01:45 51°15.894 2°53.679 23.1598 0.128963 0.665337 22.122603
2009-08-12 07:01:50 51°15.908 2°53.667 23.1487 0.136476 0.706127 22.122603
2009-08-12 07:01:55 51°15.922 2°53.654 23.1545 0.134623 0.696302 22.122603
2009-08-12 07:02:00 51°15.936 2°53.641 23.1597 0.12711 0.656058 22.122603
2009-08-12 07:02:05 51°15.95 2°53.629 23.1353 0.139769 0.726647 22.087779
2009-08-12 07:02:11 51°15.966 2°53.615 23.1514 0.133697 0.694241 22.087779
2009-08-12 07:02:16 51°15.98 2°53.603 23.1433 0.133697 0.694241 22.087779
2009-08-12 07:02:21 51°15.995 2°53.591 23.1564 0.126184 0.653724 22.087779
2009-08-12 07:02:26 51°16.008 2°53.579 23.1422 0.124949 0.646717 22.052955
2009-08-12 07:02:31 51°16.023 2°53.567 23.1483 0.133388 0.69214 22.052955
2009-08-12 07:02:35 51°16.034 2°53.557 23.1608 0.135241 0.702088 22.052955
2009-08-12 07:02:41 51°16.051 2°53.543 23.157 0.126184 0.652475 22.052955
2009-08-12 07:02:46 51°16.065 2°53.53 23.15 0.126184 0.652475 22.052955
2009-08-12 07:02:51 51°16.079 2°53.517 23.1548 0.133182 0.689839 22.052955
2009-08-12 07:02:56 51°16.093 2°53.505 23.1483 0.131638 0.681507 22.018131
2009-08-12 07:03:01 51°16.107 2°53.493 23.1538 0.127419 0.65855 22.018131
2009-08-12 07:03:06 51°16.121 2°53.48 23.1554 0.136167 0.705953 22.018131
2009-08-12 07:03:10 51°16.133 2°53.471 23.1612 0.124949 0.645504 22.018131
2009-08-12 07:03:16 51°16.15 2°53.456 23.1545 0.124949 0.645504 22.018131
2009-08-12 07:03:21 51°16.164 2°53.444 23.1574 0.12886 0.666805 21.983307
2009-08-12 07:03:26 51°16.179 2°53.432 23.1573 0.129065 0.667938 21.983307
2009-08-12 07:03:31 51°16.193 2°53.421 23.1698 0.125257 0.647313 21.983307
2009-08-12 07:03:36 51°16.207 2°53.409 23.1636 0.125772 0.649982 21.983307
2009-08-12 07:03:41 51°16.222 2°53.397 23.1653 0.124434 0.642753 21.983307
2009-08-12 07:03:46 51°16.236 2°53.385 23.1667 0.124434 0.642753 21.983307
2009-08-12 07:03:51 51°16.251 2°53.373 23.1678 0.12639 0.653341 21.948483
2009-08-12 07:03:55 51°16.262 2°53.364 23.1744 0.127625 0.660033 21.948483
2009-08-12 07:04:01 51°16.28 2°53.35 23.1552 0.118877 0.612954 21.948483
2009-08-12 07:04:06 51°16.294 2°53.338 23.17 0.136887 0.710153 21.948483
2009-08-12 07:04:11 51°16.308 2°53.325 23.1656 0.137299 0.712441 21.948483
2009-08-12 07:04:15 51°16.32 2°53.316 23.1501 0.137299 0.712441 21.948483
2009-08-12 07:04:21 51°16.337 2°53.301 23.1609 0.128139 0.662895 21.948483
2009-08-12 07:04:26 51°16.351 2°53.289 23.1532 0.122787 0.634002 21.913659
2009-08-12 07:04:31 51°16.365 2°53.277 23.1629 0.123302 0.63673 21.913659
2009-08-12 07:04:36 51°16.379 2°53.264 23.167 0.127625 0.659948 21.913659
2009-08-12 07:04:41 51°16.393 2°53.252 23.167 0.120626 0.622366 21.913659
2009-08-12 07:04:46 51°16.408 2°53.24 23.1632 0.120626 0.622366 21.913659
2009-08-12 07:04:51 51°16.422 2°53.228 23.1705 0.121758 0.628515 21.878835
2009-08-12 07:04:56 51°16.436 2°53.216 23.1753 0.127316 0.658485 21.878835
2009-08-12 07:05:01 51°16.45 2°53.204 23.1732 0.117436 0.605423 21.878835
2009-08-12 07:05:05 51°16.461 2°53.195 23.1612 0.122685 0.633683 21.878835
2009-08-12 07:05:11 51°16.479 2°53.18 23.1779 0.123096 0.636178 21.844011
2009-08-12 07:05:16 51°16.493 2°53.168 23.178 0.123096 0.636178 21.844011
2009-08-12 07:05:21 51°16.507 2°53.156 23.1786 0.119597 0.617483 21.844011
2009-08-12 07:05:26 51°16.521 2°53.144 23.175 0.119391 0.616396 21.844011
2009-08-12 07:05:31 51°16.535 2°53.132 23.1725 0.125875 0.651295 21.844011
2009-08-12 07:05:36 51°16.549 2°53.12 23.1872 0.114966 0.592591 21.844011
2009-08-12 07:05:41 51°16.564 2°53.108 23.1808 0.12639 0.654051 21.809187
2009-08-12 07:05:46 51°16.578 2°53.096 23.1782 0.12639 0.654051 21.809187
2009-08-12 07:05:51 51°16.592 2°53.084 23.1768 0.124022 0.641273 21.844011
2009-08-12 07:05:55 51°16.603 2°53.075 23.1922 0.121552 0.627966 21.809187
2009-08-12 07:06:01 51°16.62 2°53.06 23.1864 0.13205 0.684585 21.809187
2009-08-12 07:06:06 51°16.635 2°53.049 23.1812 0.122273 0.631743 21.809187
2009-08-12 07:06:11 51°16.649 2°53.037 23.1865 0.128551 0.665516 21.774363
2009-08-12 07:06:15 51°16.66 2°53.028 23.1768 0.128551 0.665516 21.774363
2009-08-12 07:06:21 51°16.677 2°53.013 23.1832 0.127625 0.660482 21.774363
2009-08-12 07:06:26 51°16.691 2°53.001 23.1786 0.12711 0.657758 21.774363
2009-08-12 07:06:30 51°16.702 2°52.991 23.1876 0.124537 0.643849 21.774363
2009-08-12 07:06:36 51°16.719 2°52.977 23.1712 0.127933 0.662138 21.774363
2009-08-12 07:06:41 51°16.734 2°52.965 23.1813 0.125566 0.649429 21.739539
2009-08-12 07:06:46 51°16.748 2°52.952 23.187 0.125566 0.649429 21.739539
2009-08-12 07:06:50 51°16.759 2°52.943 23.1934 0.133594 0.692761 21.739539
2009-08-12 07:06:56 51°16.776 2°52.928 23.1791 0.132153 0.684975 21.739539
2009-08-12 07:07:01 51°16.79 2°52.916 23.1848 0.123508 0.638354 21.739539
2009-08-12 07:07:05 51°16.801 2°52.906 23.1874 0.138328 0.718474 21.704715
2009-08-12 07:07:11 51°16.818 2°52.891 23.191 0.122067 0.630625 21.704715
2009-08-12 07:07:16 51°16.832 2°52.879 23.1832 0.122067 0.630625 21.704715
2009-08-12 07:07:21 51°16.846 2°52.866 23.1874 0.130198 0.674609 21.704715
2009-08-12 07:07:26 51°16.86 2°52.853 23.1755 0.12639 0.65404 21.669891
2009-08-12 07:07:31 51°16.873 2°52.839 23.1779 0.133079 0.690188 21.704715
2009-08-12 07:07:36 51°16.887 2°52.826 23.1833 0.122376 0.632308 21.669891
2009-08-12 07:07:41 51°16.9 2°52.812 23.1782 0.125052 0.646633 21.669891
2009-08-12 07:07:46 51°16.914 2°52.799 23.1774 0.125052 0.646633 21.669891
2009-08-12 07:07:51 51°16.928 2°52.785 23.1906 0.119597 0.617274 21.669891
2009-08-12 07:07:56 51°16.941 2°52.771 23.187 0.11795 0.608442 21.669891
2009-08-12 07:08:01 51°16.955 2°52.758 23.1867 0.128242 0.66402 21.669891
2009-08-12 07:08:06 51°16.969 2°52.744 23.1808 0.130403 0.67581 21.669891
2009-08-12 07:08:11 51°16.983 2°52.731 23.1848 0.124846 0.645743 21.635067
2009-08-12 07:08:15 51°16.993 2°52.72 23.1783 0.124846 0.645743 21.635067
2009-08-12 07:08:21 51°17.01 2°52.703 23.1873 0.119906 0.619114 21.635067
2009-08-12 07:08:26 51°17.023 2°52.689 23.179 0.122067 0.630737 21.635067
2009-08-12 07:08:31 51°17.037 2°52.676 23.1879 0.123714 0.639681 21.635067
2009-08-12 07:08:36 51°17.05 2°52.662 23.1824 0.118259 0.610417 21.600243
2009-08-12 07:08:41 51°17.064 2°52.648 23.1903 0.123714 0.639919 21.600243
2009-08-12 07:08:46 51°17.077 2°52.634 23.1878 0.123714 0.639919 21.600243
2009-08-12 07:08:50 51°17.088 2°52.623 23.192 0.124846 0.646099 21.600243
2009-08-12 07:08:56 51°17.104 2°52.607 23.1958 0.116921 0.603451 21.600243
2009-08-12 07:09:01 51°17.118 2°52.592 23.1933 0.123199 0.637124 21.565419
2009-08-12 07:09:06 51°17.131 2°52.578 23.1903 0.131227 0.680384 21.565419
2009-08-12 07:09:10 51°17.142 2°52.567 23.195 0.119391 0.616406 21.565419
2009-08-12 07:09:16 51°17.158 2°52.551 23.194 0.119391 0.616406 21.565419
2009-08-12 07:09:21 51°17.171 2°52.537 23.1955 0.124125 0.641828 21.565419
2009-08-12 07:09:26 51°17.184 2°52.523 23.1982 0.116407 0.600258 21.565419
2009-08-12 07:09:30 51°17.195 2°52.511 23.188 0.124846 0.645628 21.530595
2009-08-12 07:09:36 51°17.211 2°52.495 23.1941 0.122685 0.633971 21.530595
2009-08-12 07:09:41 51°17.225 2°52.481 23.1949 0.124537 0.643932 21.530595
2009-08-12 07:09:46 51°17.238 2°52.467 23.1954 0.124537 0.643932 21.530595
2009-08-12 07:09:50 51°17.249 2°52.455 23.1898 0.116407 0.600171 21.530595
2009-08-12 07:09:56 51°17.265 2°52.439 23.2077 0.117642 0.606862 21.530595
2009-08-12 07:10:01 51°17.278 2°52.424 23.1946 0.122479 0.633026 21.495771
2009-08-12 07:10:06 51°17.292 2°52.41 23.2001 0.120009 0.619848 21.495771
2009-08-12 07:10:10 51°17.302 2°52.398 23.2122 0.119906 0.619435 21.495771
2009-08-12 07:10:16 51°17.319 2°52.382 23.205 0.128345 0.665234 21.495771
2009-08-12 07:10:21 51°17.332 2°52.367 23.206 0.128345 0.665234 21.495771
2009-08-12 07:10:26 51°17.346 2°52.354 23.2029 0.118568 0.612603 21.495771
2009-08-12 07:10:30 51°17.357 2°52.343 23.2066 0.115583 0.596513 21.460946
2009-08-12 07:10:36 51°17.373 2°52.326 23.2129 0.119803 0.619232 21.460946
2009-08-12 07:10:41 51°17.387 2°52.313 23.2052 0.141725 0.73786 21.460946
2009-08-12 07:10:46 51°17.4 2°52.298 23.2046 0.141725 0.73786 21.460946
2009-08-12 07:10:50 51°17.411 2°52.287 23.1908 0.112804 0.581357 21.460946
2009-08-12 07:10:56 51°17.426 2°52.268 23.2095 0.135138 0.701621 21.460946
2009-08-12 07:11:01 51°17.439 2°52.253 23.2007 0.119288 0.615952 21.426122
2009-08-12 07:11:06 51°17.451 2°52.236 23.2066 0.131947 0.684327 21.426122
2009-08-12 07:11:11 51°17.463 2°52.22 23.2097 0.118671 0.61276 21.426122
2009-08-12 07:11:16 51°17.475 2°52.202 23.2065 0.118671 0.61276 21.426122
2009-08-12 07:11:21 51°17.486 2°52.185 23.2036 0.118259 0.610665 21.426122
2009-08-12 07:11:26 51°17.497 2°52.166 23.2079 0.124023 0.641803 21.426122
2009-08-12 07:11:30 51°17.506 2°52.152 23.2103 0.112702 0.580918 21.426122
2009-08-12 07:11:36 51°17.519 2°52.129 23.2035 0.133594 0.693627 21.391298
2009-08-12 07:11:41 51°17.53 2°52.111 23.2063 0.121861 0.630231 21.391298
2009-08-12 07:11:46 51°17.541 2°52.092 23.2062 0.121861 0.630231 21.391298
2009-08-12 07:11:51 51°17.551 2°52.072 23.2089 0.118877 0.614016 21.391298
2009-08-12 07:11:56 51°17.561 2°52.053 23.2042 0.127213 0.658943 21.391298
2009-08-12 07:12:01 51°17.572 2°52.034 23.2083 0.111775 0.575876 21.356474
2009-08-12 07:12:06 51°17.582 2°52.014 23.2126 0.131536 0.682431 21.356474
2009-08-12 07:12:10 51°17.59 2°51.998 23.209 0.112084 0.57769 21.356474
2009-08-12 07:12:16 51°17.602 2°51.975 23.2055 0.112084 0.57769 21.356474
2009-08-12 07:12:21 51°17.612 2°51.955 23.2136 0.12042 0.622508 21.356474
2009-08-12 07:12:26 51°17.622 2°51.935 23.2101 0.124846 0.646403 21.356474
2009-08-12 07:12:31 51°17.632 2°51.915 23.21 0.117847 0.608628 21.32165
2009-08-12 07:12:36 51°17.642 2°51.895 23.2114 0.113422 0.584764 21.32165
2009-08-12 07:12:41 51°17.652 2°51.875 23.2113 0.118774 0.613522 21.32165
2009-08-12 07:12:46 51°17.662 2°51.855 23.2185 0.118774 0.613522 21.32165
2009-08-12 07:12:51 51°17.672 2°51.835 23.2191 0.114863 0.592518 21.32165
2009-08-12 07:12:55 51°17.68 2°51.819 23.2224 0.124743 0.645826 21.286826
2009-08-12 07:13:01 51°17.692 2°51.795 23.2196 0.122376 0.633159 21.286826
2009-08-12 07:13:06 51°17.702 2°51.775 23.2158 0.111775 0.576128 21.286826
2009-08-12 07:13:11 51°17.711 2°51.755 23.2144 0.112496 0.579992 21.286826
2009-08-12 07:13:15 51°17.719 2°51.739 23.2211 0.112496 0.579992 21.286826
2009-08-12 07:13:21 51°17.731 2°51.715 23.2239 0.121347 0.62763 21.252002
2009-08-12 07:13:26 51°17.741 2°51.695 23.2195 0.129889 0.673912 21.252002
2009-08-12 07:13:31 51°17.751 2°51.675 23.2287 0.116715 0.602911 21.252002
2009-08-12 07:13:36 51°17.761 2°51.655 23.2248 0.122376 0.633272 21.252002
2009-08-12 07:13:41 51°17.771 2°51.635 23.2329 0.115377 0.595417 21.252002
2009-08-12 07:13:46 51°17.781 2°51.615 23.2262 0.115377 0.595417 21.252002
2009-08-12 07:13:51 51°17.791 2°51.595 23.2183 0.121141 0.626267 21.217178
2009-08-12 07:13:55 51°17.799 2°51.579 23.2301 0.124949 0.64678 21.217178
2009-08-12 07:14:01 51°17.812 2°51.556 23.2237 0.121552 0.628597 21.217178
2009-08-12 07:14:06 51°17.822 2°51.536 23.2261 0.111055 0.572274 21.217178
2009-08-12 07:14:11 51°17.832 2°51.516 23.2219 0.124023 0.642126 21.217178
2009-08-12 07:14:16 51°17.842 2°51.496 23.2256 0.124023 0.642126 21.217178
2009-08-12 07:14:21 51°17.852 2°51.476 23.2365 0.117539 0.60744 21.217178
2009-08-12 07:14:26 51°17.862 2°51.456 23.2318 0.122993 0.636985 21.217178
2009-08-12 07:14:30 51°17.871 2°51.44 23.2343 0.114245 0.589919 21.182354
2009-08-12 07:14:36 51°17.883 2°51.417 23.235 0.116715 0.603155 21.182354
2009-08-12 07:14:41 51°17.893 2°51.397 23.2331 0.121347 0.628099 21.182354
2009-08-12 07:14:46 51°17.904 2°51.377 23.2354 0.121347 0.628099 21.182354
2009-08-12 07:14:51 51°17.914 2°51.357 23.2414 0.11476 0.592599 21.14753
2009-08-12 07:14:56 51°17.924 2°51.337 23.2424 0.120112 0.621419 21.14753
2009-08-12 07:15:01 51°17.934 2°51.318 23.2407 0.123817 0.641535 21.14753
2009-08-12 07:15:06 51°17.945 2°51.298 23.2408 0.117127 0.605489 21.14753
2009-08-12 07:15:11 51°17.955 2°51.278 23.2355 0.117642 0.608319 21.14753
2009-08-12 07:15:15 51°17.964 2°51.262 23.2433 0.117642 0.608319 21.14753
2009-08-12 07:15:21 51°17.976 2°51.238 23.2472 0.113834 0.587916 21.14753
2009-08-12 07:15:26 51°17.986 2°51.218 23.2416 0.115583 0.597355 21.14753
2009-08-12 07:15:31 51°17.997 2°51.198 23.248 0.116304 0.601281 21.14753
2009-08-12 07:15:35 51°18.005 2°51.183 23.2417 0.119391 0.618027 21.112706
2009-08-12 07:15:41 51°18.017 2°51.159 23.2468 0.12217 0.633127 21.112706
2009-08-12 07:15:46 51°18.028 2°51.139 23.2409 0.12217 0.633127 21.112706
2009-08-12 07:15:51 51°18.038 2°51.119 23.2479 0.116098 0.600427 21.112706
2009-08-12 07:15:56 51°18.048 2°51.099 23.253 0.120112 0.622025 21.112706
2009-08-12 07:16:01 51°18.059 2°51.079 23.2368 0.10982 0.56659 21.112706
2009-08-12 07:16:06 51°18.069 2°51.059 23.2502 0.12289 0.636957 21.077882
2009-08-12 07:16:11 51°18.079 2°51.04 23.2573 0.116304 0.601408 21.077882
2009-08-12 07:16:16 51°18.09 2°51.02 23.2574 0.116304 0.601408 21.077882
2009-08-12 07:16:21 51°18.1 2°51 23.2527 0.113525 0.586408 21.077882
2009-08-12 07:16:26 51°18.11 2°50.98 23.2406 0.120009 0.621277 21.077882
2009-08-12 07:16:31 51°18.12 2°50.961 23.2565 0.116921 0.604646 21.077882
2009-08-12 07:16:36 51°18.13 2°50.94 23.2593 0.114554 0.591914 21.043058
2009-08-12 07:16:41 51°18.141 2°50.921 23.2455 0.113422 0.585826 21.043058
2009-08-12 07:16:46 51°18.151 2°50.9 23.2513 0.113422 0.585826 21.043058
2009-08-12 07:16:51 51°18.161 2°50.88 23.2647 0.114966 0.594139 21.043058
2009-08-12 07:16:56 51°18.171 2°50.861 23.2548 0.129168 0.670841 21.043058
2009-08-12 07:17:01 51°18.182 2°50.841 23.255 0.122273 0.63357 21.043058
2009-08-12 07:17:06 51°18.192 2°50.821 23.2569 0.117539 0.608041 21.008234
2009-08-12 07:17:11 51°18.202 2°50.802 23.2501 0.116407 0.601943 21.008234
2009-08-12 07:17:15 51°18.21 2°50.786 23.2622 0.116407 0.601943 21.008234
2009-08-12 07:17:21 51°18.222 2°50.762 23.2484 0.125978 0.653641 21.008234
2009-08-12 07:17:26 51°18.232 2°50.742 23.2664 0.122685 0.635897 21.008234
2009-08-12 07:17:31 51°18.243 2°50.722 23.2484 0.113834 0.588202 21.008234
2009-08-12 07:17:35 51°18.251 2°50.706 23.26 0.125258 0.64986 21.008234
2009-08-12 07:17:41 51°18.263 2°50.682 23.2662 0.122273 0.633714 21.008234
2009-08-12 07:17:46 51°18.273 2°50.662 23.2557 0.122273 0.633714 21.008234
2009-08-12 07:17:51 51°18.283 2°50.642 23.2662 0.119185 0.617058 20.97341
2009-08-12 07:17:55 51°18.291 2°50.626 23.256 0.112702 0.582096 20.97341
2009-08-12 07:18:01 51°18.303 2°50.602 23.2715 0.12711 0.6598 20.97341
2009-08-12 07:18:06 51°18.313 2°50.582 23.2718 0.117436 0.607516 20.97341
2009-08-12 07:18:11 51°18.324 2°50.562 23.2619 0.116201 0.600786 20.97341
2009-08-12 07:18:16 51°18.333 2°50.542 23.2649 0.116201 0.600786 20.97341
2009-08-12 07:18:21 51°18.344 2°50.522 23.2655 0.12886 0.669049 20.97341
2009-08-12 07:18:26 51°18.354 2°50.502 23.2719 0.121964 0.631728 20.938586
2009-08-12 07:18:30 51°18.362 2°50.486 23.2695 0.114863 0.593441 20.938586
2009-08-12 07:18:36 51°18.374 2°50.462 23.2699 0.121655 0.630051 20.938586
2009-08-12 07:18:41 51°18.385 2°50.442 23.2784 0.115995 0.599571 20.903762
2009-08-12 07:18:46 51°18.395 2°50.423 23.2674 0.115995 0.599571 20.903762
2009-08-12 07:18:50 51°18.404 2°50.407 23.2755 0.123302 0.639015 20.938586
2009-08-12 07:18:56 51°18.416 2°50.383 23.2742 0.118877 0.615172 20.903762
2009-08-12 07:19:01 51°18.426 2°50.364 23.2787 0.119391 0.617917 20.903762
2009-08-12 07:19:06 51°18.437 2°50.344 23.2699 0.121758 0.630647 20.903762
2009-08-12 07:19:10 51°18.445 2°50.328 23.2805 0.127007 0.65904 20.868938
2009-08-12 07:19:16 51°18.458 2°50.304 23.2719 0.127007 0.65904 20.868938
2009-08-12 07:19:21 51°18.468 2°50.285 23.2734 0.12536 0.650163 20.903762
2009-08-12 07:19:26 51°18.478 2°50.265 23.2783 0.117642 0.608517 20.903762
2009-08-12 07:19:31 51°18.489 2°50.245 23.2797 0.120935 0.626428 20.868938
2009-08-12 07:19:35 51°18.497 2°50.23 23.2725 0.11548 0.597053 20.868938
2009-08-12 07:19:41 51°18.509 2°50.206 23.2706 0.128036 0.664849 20.868938
2009-08-12 07:19:46 51°18.519 2°50.186 23.2823 0.128036 0.664849 20.868938
2009-08-12 07:19:51 51°18.529 2°50.167 23.2781 0.116304 0.601428 20.868938
2009-08-12 07:19:55 51°18.537 2°50.151 23.2862 0.123302 0.63914 20.868938
2009-08-12 07:20:01 51°18.55 2°50.128 23.2834 0.125978 0.653524 20.834113
2009-08-12 07:20:06 51°18.56 2°50.108 23.2851 0.113113 0.584081 20.834113
2009-08-12 07:20:11 51°18.57 2°50.088 23.2747 0.122993 0.637306 20.834113
2009-08-12 07:20:15 51°18.578 2°50.072 23.2895 0.122993 0.637306 20.834113
2009-08-12 07:20:21 51°18.59 2°50.049 23.2847 0.119391 0.617897 20.834113
2009-08-12 07:20:26 51°18.6 2°50.029 23.2881 0.114966 0.5941 20.834113
2009-08-12 07:20:31 51°18.61 2°50.009 23.2936 0.123096 0.637976 20.799289
2009-08-12 07:20:36 51°18.62 2°49.99 23.2798 0.114245 0.590311 20.799289
2009-08-12 07:20:41 51°18.63 2°49.97 23.2875 0.110849 0.572115 20.799289
2009-08-12 07:20:46 51°18.64 2°49.95 23.2829 0.110849 0.572115 20.799289
2009-08-12 07:20:51 51°18.65 2°49.93 23.2942 0.116715 0.603684 20.799289
2009-08-12 07:20:56 51°18.659 2°49.91 23.2878 0.114451 0.591514 20.799289
2009-08-12 07:21:01 51°18.669 2°49.89 23.2842 0.116098 0.600475 20.799289
2009-08-12 07:21:06 51°18.679 2°49.87 23.2899 0.12289 0.637185 20.799289
2009-08-12 07:21:11 51°18.69 2°49.851 23.2888 0.120112 0.622257 20.799289
2009-08-12 07:21:16 51°18.7 2°49.831 23.2975 0.120112 0.622257 20.799289
2009-08-12 07:21:21 51°18.71 2°49.812 23.2962 0.127213 0.660712 20.764465
2009-08-12 07:21:26 51°18.72 2°49.792 23.2923 0.124125 0.644114 20.764465
2009-08-12 07:21:31 51°18.73 2°49.773 23.294 0.116715 0.604077 20.764465
2009-08-12 07:21:36 51°18.741 2°49.753 23.2946 0.11651 0.602879 20.764465
2009-08-12 07:21:41 51°18.751 2°49.734 23.2883 0.122479 0.635063 20.764465
2009-08-12 07:21:46 51°18.761 2°49.714 23.2986 0.122479 0.635063 20.764465
2009-08-12 07:21:51 51°18.771 2°49.694 23.2978 0.124023 0.643368 20.764465
2009-08-12 07:21:55 51°18.779 2°49.678 23.2935 0.120729 0.625561 20.729641
2009-08-12 07:22:01 51°18.792 2°49.654 23.2851 0.122479 0.634898 20.729641
2009-08-12 07:22:06 51°18.802 2°49.634 23.289 0.115583 0.597627 20.729641
2009-08-12 07:22:11 51°18.812 2°49.614 23.2939 0.123508 0.640408 20.729641
2009-08-12 07:22:15 51°18.82 2°49.598 23.2879 0.123508 0.640408 20.729641
2009-08-12 07:22:21 51°18.832 2°49.574 23.3003 0.125669 0.652193 20.729641
2009-08-12 07:22:26 51°18.842 2°49.554 23.2965 0.113319 0.585558 20.694817
2009-08-12 07:22:31 51°18.852 2°49.533 23.3047 0.121244 0.628248 20.694817
2009-08-12 07:22:35 51°18.86 2°49.518 23.2923 0.122582 0.635506 20.694817
2009-08-12 07:22:41 51°18.873 2°49.493 23.3013 0.111775 0.577286 20.659993
2009-08-12 07:22:46 51°18.883 2°49.473 23.2957 0.111775 0.577286 20.659993
2009-08-12 07:22:51 51°18.893 2°49.453 23.3055 0.121655 0.630584 20.659993
2009-08-12 07:22:56 51°18.903 2°49.433 23.3046 0.120215 0.622894 20.659993
2009-08-12 07:23:01 51°18.913 2°49.413 23.3014 0.115069 0.595195 20.659993
2009-08-12 07:23:06 51°18.924 2°49.393 23.3044 0.116921 0.605216 20.659993
2009-08-12 07:23:11 51°18.934 2°49.372 23.2972 0.114142 0.590265 20.659993
2009-08-12 07:23:16 51°18.944 2°49.352 23.3086 0.114142 0.590265 20.659993
2009-08-12 07:23:21 51°18.954 2°49.331 23.3044 0.118362 0.613026 20.659993
2009-08-12 07:23:26 51°18.964 2°49.311 23.3073 0.11476 0.593619 20.625169
2009-08-12 07:23:31 51°18.974 2°49.29 23.3085 0.120009 0.621924 20.625169
2009-08-12 07:23:36 51°18.984 2°49.27 23.313 0.122376 0.634714 20.625169
2009-08-12 07:23:41 51°18.994 2°49.25 23.3172 0.12217 0.633663 20.625169
2009-08-12 07:23:46 51°19.004 2°49.229 23.2979 0.12217 0.633663 20.625169
2009-08-12 07:23:50 51°19.012 2°49.213 23.3154 0.121758 0.631448 20.625169
2009-08-12 07:23:56 51°19.024 2°49.189 23.31 0.126904 0.659351 20.590345
2009-08-12 07:24:01 51°19.035 2°49.168 23.3182 0.116715 0.604332 20.590345
2009-08-12 07:24:06 51°19.045 2°49.148 23.3139 0.119185 0.61775 20.590345
2009-08-12 07:24:10 51°19.053 2°49.132 23.3108 0.123199 0.639593 20.590345
2009-08-12 07:24:16 51°19.065 2°49.108 23.316 0.111775 0.577859 20.590345
2009-08-12 07:24:21 51°19.075 2°49.087 23.316 0.111775 0.577859 20.590345
2009-08-12 07:24:26 51°19.086 2°49.067 23.3207 0.118362 0.613155 20.590345
2009-08-12 07:24:30 51°19.094 2°49.051 23.3104 0.118465 0.613581 20.590345
2009-08-12 07:24:36 51°19.106 2°49.026 23.32 0.120112 0.622389 20.555521
2009-08-12 07:24:41 51°19.116 2°49.006 23.3249 0.116612 0.603453 20.555521
2009-08-12 07:24:46 51°19.126 2°48.986 23.3195 0.116612 0.603453 20.555521
2009-08-12 07:24:51 51°19.136 2°48.965 23.3219 0.116715 0.603988 20.555521
2009-08-12 07:24:56 51°19.147 2°48.945 23.3232 0.119494 0.619005 20.555521
2009-08-12 07:25:01 51°19.157 2°48.925 23.3257 0.116304 0.601858 20.520697
2009-08-12 07:25:06 51°19.167 2°48.904 23.3252 0.115789 0.599124 20.555521
2009-08-12 07:25:11 51°19.178 2°48.884 23.3298 0.113628 0.587524 20.520697
2009-08-12 07:25:15 51°19.186 2°48.868 23.3304 0.113628 0.587524 20.520697
2009-08-12 07:25:21 51°19.198 2°48.844 23.3306 0.11404 0.589836 20.520697
2009-08-12 07:25:26 51°19.208 2°48.824 23.3186 0.116098 0.601081 20.520697
2009-08-12 07:25:31 51°19.219 2°48.803 23.3315 0.118362 0.613385 20.520697
2009-08-12 07:25:36 51°19.229 2°48.783 23.3317 0.11404 0.590104 20.520697
2009-08-12 07:25:41 51°19.239 2°48.762 23.3336 0.11723 0.607433 20.485873
2009-08-12 07:25:46 51°19.249 2°48.742 23.3306 0.11723 0.607433 20.485873
2009-08-12 07:25:51 51°19.26 2°48.722 23.3282 0.119494 0.619942 20.485873
2009-08-12 07:25:56 51°19.27 2°48.701 23.3323 0.120009 0.622826 20.485873
2009-08-12 07:26:01 51°19.28 2°48.681 23.3351 0.118259 0.613488 20.485873
2009-08-12 07:26:06 51°19.291 2°48.661 23.3326 0.114554 0.593485 20.485873
2009-08-12 07:26:11 51°19.301 2°48.641 23.3355 0.114142 0.591187 20.485873
2009-08-12 07:26:16 51°19.311 2°48.62 23.3397 0.111981 0.579399 20.451049
2009-08-12 07:26:21 51°19.322 2°48.6 23.3444 0.111981 0.579399 20.451049
2009-08-12 07:26:26 51°19.332 2°48.579 23.3339 0.111775 0.57815 20.451049
2009-08-12 07:26:31 51°19.343 2°48.559 23.3421 0.113525 0.587428 20.451049
2009-08-12 07:26:35 51°19.351 2°48.543 23.3276 0.113525 0.587342 20.451049
2009-08-12 07:26:41 51°19.363 2°48.518 23.3455 0.119494 0.619529 20.451049
2009-08-12 07:26:46 51°19.374 2°48.498 23.3459 0.119494 0.619529 20.451049
2009-08-12 07:26:51 51°19.385 2°48.478 23.3446 0.108173 0.558571 20.451049
2009-08-12 07:26:55 51°19.393 2°48.462 23.3448 0.118671 0.615152 20.451049
2009-08-12 07:27:01 51°19.405 2°48.438 23.3517 0.115789 0.599631 20.451049
2009-08-12 07:27:06 51°19.416 2°48.418 23.3451 0.118774 0.615798 20.416225
2009-08-12 07:27:11 51°19.426 2°48.399 23.3525 0.110746 0.572575 20.416225
2009-08-12 07:27:16 51°19.436 2°48.379 23.3406 0.110746 0.572575 20.416225
2009-08-12 07:27:21 51°19.446 2°48.359 23.3532 0.114554 0.593079 20.416225
2009-08-12 07:27:26 51°19.456 2°48.339 23.3539 0.11476 0.594198 20.381401
2009-08-12 07:27:31 51°19.467 2°48.32 23.3528 0.120523 0.625344 20.416225
2009-08-12 07:27:36 51°19.476 2°48.3 23.3486 0.109408 0.565472 20.416225
2009-08-12 07:27:41 51°19.487 2°48.28 23.3525 0.111467 0.576582 20.381401
2009-08-12 07:27:46 51°19.497 2°48.261 23.3602 0.111467 0.576582 20.381401
2009-08-12 07:27:51 51°19.507 2°48.241 23.3552 0.111364 0.576093 20.381401
2009-08-12 07:27:56 51°19.517 2°48.221 23.3557 0.115275 0.597167 20.381401
2009-08-12 07:28:01 51°19.527 2°48.202 23.3617 0.109305 0.565029 20.381401
2009-08-12 07:28:05 51°19.535 2°48.186 23.3502 0.11651 0.603811 20.346577
2009-08-12 07:28:11 51°19.547 2°48.162 23.3579 0.11157 0.577192 20.381401
2009-08-12 07:28:16 51°19.557 2°48.143 23.3591 0.11157 0.577192 20.381401
2009-08-12 07:28:21 51°19.566 2°48.123 23.3616 0.112187 0.580498 20.346577
2009-08-12 07:28:26 51°19.577 2°48.103 23.3567 0.121964 0.633282 20.346577
2009-08-12 07:28:31 51°19.587 2°48.083 23.3652 0.116818 0.605448 20.346577
2009-08-12 07:28:36 51°19.597 2°48.064 23.3636 0.124537 0.647205 20.346577
2009-08-12 07:28:41 51°19.607 2°48.044 23.3628 0.11548 0.598258 20.346577
2009-08-12 07:28:46 51°19.617 2°48.024 23.3634 0.11548 0.598258 20.346577
2009-08-12 07:28:51 51°19.628 2°48.004 23.3646 0.11548 0.598229 20.346577
2009-08-12 07:28:55 51°19.636 2°47.988 23.3668 0.128345 0.667771 20.346577
2009-08-12 07:29:01 51°19.648 2°47.965 23.3664 0.116818 0.60529 20.346577
2009-08-12 07:29:06 51°19.658 2°47.945 23.3701 0.116921 0.605826 20.346577
2009-08-12 07:29:11 51°19.668 2°47.925 23.361 0.123405 0.640884 20.311753
2009-08-12 07:29:15 51°19.677 2°47.909 23.3736 0.123405 0.640884 20.311753
2009-08-12 07:29:21 51°19.689 2°47.885 23.3762 0.126493 0.657656 20.311753
2009-08-12 07:29:26 51°19.699 2°47.865 23.3733 0.119597 0.620357 20.311753
2009-08-12 07:29:31 51°19.71 2°47.846 23.3671 0.109614 0.56656 20.311753
2009-08-12 07:29:36 51°19.72 2°47.826 23.3758 0.121038 0.628342 20.311753
2009-08-12 07:29:41 51°19.73 2°47.806 23.3823 0.115789 0.600139 20.276929
2009-08-12 07:29:46 51°19.74 2°47.786 23.3743 0.113422 0.58739 20.276929
2009-08-12 07:29:51 51°19.751 2°47.766 23.3824 0.113422 0.58739 20.276929
2009-08-12 07:29:56 51°19.761 2°47.746 23.3879 0.116818 0.605655 20.276929
2009-08-12 07:30:01 51°19.771 2°47.726 23.3802 0.112907 0.584502 20.276929
2009-08-12 07:30:06 51°19.781 2°47.706 23.378 0.119597 0.620559 20.276929
2009-08-12 07:30:11 51°19.792 2°47.687 23.3819 0.115583 0.598842 20.242105
2009-08-12 07:30:16 51°19.802 2°47.667 23.3839 0.115583 0.598842 20.242105
2009-08-12 07:30:21 51°19.812 2°47.646 23.3832 0.113628 0.58827 20.242105
2009-08-12 07:30:26 51°19.822 2°47.626 23.3861 0.116818 0.605468 20.242105
2009-08-12 07:30:31 51°19.832 2°47.606 23.389 0.111878 0.578836 20.242105
2009-08-12 07:30:36 51°19.842 2°47.586 23.3911 0.117436 0.608831 20.207281
2009-08-12 07:30:41 51°19.853 2°47.566 23.3939 0.122376 0.635593 20.242105
2009-08-12 07:30:46 51°19.863 2°47.546 23.3903 0.122376 0.635593 20.242105
2009-08-12 07:30:51 51°19.873 2°47.526 23.3814 0.115686 0.599495 20.242105
2009-08-12 07:30:55 51°19.881 2°47.51 23.3877 0.116304 0.602818 20.207281
2009-08-12 07:31:01 51°19.893 2°47.486 23.3901 0.111158 0.575042 20.207281
2009-08-12 07:31:06 51°19.904 2°47.466 23.3825 0.113834 0.589436 20.207281
2009-08-12 07:31:11 51°19.914 2°47.446 23.3893 0.124023 0.64449 20.207281
2009-08-12 07:31:15 51°19.922 2°47.43 23.389 0.124023 0.64449 20.207281
2009-08-12 07:31:21 51°19.935 2°47.406 23.3828 0.118877 0.616625 20.207281
2009-08-12 07:31:26 51°19.946 2°47.386 23.3855 0.11548 0.598268 20.207281
2009-08-12 07:31:31 51°19.956 2°47.366 23.3864 0.109408 0.565582 20.172456
2009-08-12 07:31:35 51°19.964 2°47.351 23.3834 0.116921 0.606102 20.172456
2009-08-12 07:31:41 51°19.977 2°47.326 23.3929 0.112702 0.583383 20.172456
2009-08-12 07:31:46 51°19.987 2°47.306 23.3937 0.112702 0.583383 20.172456
2009-08-12 07:31:51 51°19.997 2°47.285 23.3941 0.118877 0.616756 20.172456
2009-08-12 07:31:56 51°20.007 2°47.265 23.4016 0.127522 0.663639 20.172456
2009-08-12 07:32:01 51°20.017 2°47.245 23.4008 0.121347 0.630156 20.172456
2009-08-12 07:32:06 51°20.028 2°47.225 23.3931 0.11723 0.607878 20.172456
2009-08-12 07:32:10 51°20.036 2°47.209 23.4061 0.125669 0.653544 20.172456
2009-08-12 07:32:16 51°20.048 2°47.186 23.4016 0.125669 0.653544 20.172456
2009-08-12 07:32:21 51°20.059 2°47.165 23.3941 0.114451 0.592901 20.137632
2009-08-12 07:32:25 51°20.067 2°47.149 23.4022 0.12042 0.625205 20.137632
2009-08-12 07:32:31 51°20.079 2°47.125 23.4059 0.116407 0.603639 20.137632
2009-08-12 07:32:36 51°20.09 2°47.105 23.4109 0.111158 0.575341 20.137632
2009-08-12 07:32:41 51°20.1 2°47.085 23.4093 0.121964 0.633612 20.137632
2009-08-12 07:32:46 51°20.11 2°47.065 23.3973 0.121964 0.633612 20.137632
2009-08-12 07:32:51 51°20.121 2°47.045 23.406 0.110643 0.572402 20.102808
2009-08-12 07:32:56 51°20.131 2°47.025 23.4061 0.12392 0.644048 20.102808
2009-08-12 07:33:01 51°20.142 2°47.006 23.4075 0.113525 0.587839 20.102808
2009-08-12 07:33:06 51°20.152 2°46.985 23.4155 0.12145 0.630651 20.102808
2009-08-12 07:33:11 51°20.162 2°46.965 23.4136 0.119494 0.620094 20.102808
2009-08-12 07:33:15 51°20.171 2°46.949 23.4184 0.119494 0.620094 20.102808
2009-08-12 07:33:21 51°20.183 2°46.925 23.4164 0.117333 0.608424 20.102808
2009-08-12 07:33:26 51°20.193 2°46.905 23.4189 0.120523 0.62568 20.102808
2009-08-12 07:33:30 51°20.202 2°46.889 23.412 0.110232 0.57014 20.102808
2009-08-12 07:33:36 51°20.214 2°46.864 23.4045 0.11795 0.61177 20.102808
2009-08-12 07:33:41 51°20.223 2°46.844 23.4207 0.114863 0.59516 20.067984
2009-08-12 07:33:46 51°20.233 2°46.824 23.4237 0.114863 0.59516 20.067984
2009-08-12 07:33:51 51°20.243 2°46.804 23.416 0.116818 0.605754 20.067984
2009-08-12 07:33:56 51°20.253 2°46.783 23.4158 0.111467 0.576929 20.067984
2009-08-12 07:34:01 51°20.263 2°46.763 23.4049 0.129786 0.676125 20.067984
2009-08-12 07:34:06 51°20.274 2°46.743 23.4257 0.125463 0.652651 20.067984
2009-08-12 07:34:11 51°20.284 2°46.723 23.4158 0.122582 0.636915 20.067984
2009-08-12 07:34:16 51°20.293 2°46.703 23.4298 0.122582 0.636915 20.067984
2009-08-12 07:34:21 51°20.303 2°46.683 23.4243 0.118053 0.612306 20.03316
2009-08-12 07:34:26 51°20.313 2°46.663 23.4236 0.123714 0.642828 20.03316
2009-08-12 07:34:31 51°20.324 2°46.643 23.4213 0.114657 0.593827 20.03316
2009-08-12 07:34:36 51°20.334 2°46.623 23.429 0.128963 0.671266 20.03316
2009-08-12 07:34:41 51°20.344 2°46.602 23.4163 0.116201 0.602204 19.998336
2009-08-12 07:34:46 51°20.354 2°46.582 23.4138 0.116201 0.602204 19.998336
2009-08-12 07:34:51 51°20.364 2°46.562 23.426 0.118877 0.616655 20.03316
2009-08-12 07:34:56 51°20.374 2°46.541 23.4308 0.122376 0.635603 19.998336
2009-08-12 07:35:01 51°20.384 2°46.521 23.4305 0.115172 0.596728 19.998336
2009-08-12 07:35:06 51°20.394 2°46.5 23.4314 0.118156 0.612902 19.998336
2009-08-12 07:35:11 51°20.405 2°46.48 23.4308 0.118465 0.614621 19.998336
2009-08-12 07:35:16 51°20.415 2°46.46 23.4356 0.115275 0.597469 19.963512
2009-08-12 07:35:21 51°20.425 2°46.439 23.437 0.115275 0.597469 19.963512
2009-08-12 07:35:26 51°20.436 2°46.419 23.4412 0.115686 0.599749 19.998336
2009-08-12 07:35:31 51°20.446 2°46.398 23.4445 0.115275 0.597585 19.998336
2009-08-12 07:35:35 51°20.454 2°46.382 23.4376 0.114554 0.593823 19.963512
2009-08-12 07:35:41 51°20.466 2°46.357 23.4399 0.117127 0.607788 19.963512
2009-08-12 07:35:46 51°20.477 2°46.337 23.4409 0.117127 0.607788 19.963512
2009-08-12 07:35:51 51°20.487 2°46.316 23.4354 0.116201 0.602802 19.963512
2009-08-12 07:35:55 51°20.495 2°46.3 23.4505 0.113319 0.587208 19.963512
2009-08-12 07:36:01 51°20.508 2°46.275 23.4376 0.11229 0.58163 19.963512
2009-08-12 07:36:06 51°20.519 2°46.255 23.4413 0.115378 0.598297 19.963512
2009-08-12 07:36:11 51°20.529 2°46.235 23.4413 0.115892 0.601105 19.928688
2009-08-12 07:36:16 51°20.539 2°46.215 23.4332 0.115892 0.601105 19.928688
2009-08-12 07:36:21 51°20.55 2°46.194 23.4466 0.11229 0.581705 19.928688
2009-08-12 07:36:26 51°20.56 2°46.174 23.4413 0.116613 0.605046 19.928688
2009-08-12 07:36:31 51°20.57 2°46.153 23.4319 0.112393 0.582279 19.928688
2009-08-12 07:36:36 51°20.58 2°46.133 23.4436 0.119288 0.619526 19.928688
2009-08-12 07:36:41 51°20.591 2°46.113 23.4426 0.111878 0.579505 19.928688
2009-08-12 07:36:46 51°20.601 2°46.092 23.4474 0.111878 0.579505 19.928688
2009-08-12 07:36:51 51°20.611 2°46.072 23.4496 0.115275 0.597829 19.928688
2009-08-12 07:36:56 51°20.622 2°46.052 23.4432 0.111055 0.575077 19.893864
2009-08-12 07:37:01 51°20.632 2°46.032 23.4366 0.113422 0.587868 19.893864
2009-08-12 07:37:06 51°20.643 2°46.012 23.4272 0.107659 0.55683 19.893864
2009-08-12 07:37:11 51°20.653 2°45.992 23.4435 0.139049 0.72706 19.893864
2009-08-12 07:37:16 51°20.665 2°45.975 23.4523 0.139049 0.72706 19.893864
2009-08-12 07:37:21 51°20.677 2°45.957 23.4085 0.115892 0.601213 19.893864
2009-08-12 07:37:26 51°20.69 2°45.942 23.4294 0.10488 0.541887 19.893864
2009-08-12 07:37:31 51°20.703 2°45.926 23.4134 0.10663 0.551243 19.893864
2009-08-12 07:37:36 51°20.715 2°45.911 23.4235 0.088928 0.45654 19.893864
2009-08-12 07:37:41 51°20.729 2°45.896 23.4099 0.096544 0.497106 19.85904
2009-08-12 07:37:46 51°20.742 2°45.882 23.4175 0.096544 0.497106 19.85904
2009-08-12 07:37:50 51°20.753 2°45.87 23.4078 0.088311 0.453199 19.85904
2009-08-12 07:37:56 51°20.769 2°45.853 23.4067 0.090472 0.464671 19.85904
2009-08-12 07:38:01 51°20.783 2°45.84 23.4034 0.088311 0.453162 19.85904
2009-08-12 07:38:06 51°20.797 2°45.826 23.4391 0.083474 0.427503 19.85904
2009-08-12 07:38:11 51°20.811 2°45.813 23.4028 0.091295 0.469062 19.85904
2009-08-12 07:38:15 51°20.822 2°45.802 23.4236 0.091295 0.469062 19.85904
2009-08-12 07:38:21 51°20.839 2°45.787 23.4198 0.084503 0.432999 19.85904
2009-08-12 07:38:26 51°20.853 2°45.774 23.4273 0.086664 0.444502 19.824216
2009-08-12 07:38:31 51°20.867 2°45.761 23.4282 0.088517 0.454381 19.85904
2009-08-12 07:38:36 51°20.882 2°45.749 23.4102 0.085944 0.440749 19.85904
2009-08-12 07:38:41 51°20.896 2°45.736 23.4286 0.092222 0.474195 19.85904
2009-08-12 07:38:46 51°20.91 2°45.725 23.4358 0.087693 0.450121 19.85904
2009-08-12 07:38:51 51°20.924 2°45.712 23.4198 0.087693 0.450121 19.85904
2009-08-12 07:38:56 51°20.938 2°45.699 23.4261 0.085738 0.439741 19.85904
2009-08-12 07:39:01 51°20.952 2°45.687 23.4211 0.085326 0.437571 19.824216
2009-08-12 07:39:06 51°20.965 2°45.674 23.4262 0.088517 0.454536 19.85904
2009-08-12 07:39:10 51°20.976 2°45.664 23.4277 0.088208 0.452908 19.85904
2009-08-12 07:39:16 51°20.993 2°45.649 23.4302 0.088208 0.452908 19.85904
2009-08-12 07:39:21 51°21.007 2°45.636 23.4306 0.085738 0.439791 19.824216
2009-08-12 07:39:26 51°21.021 2°45.624 23.4286 0.08687 0.445811 19.824216
2009-08-12 07:39:30 51°21.032 2°45.613 23.4386 0.087693 0.450201 19.824216
2009-08-12 07:39:36 51°21.048 2°45.597 23.4278 0.092942 0.478153 19.824216
2009-08-12 07:39:41 51°21.062 2°45.585 23.4409 0.083988 0.430529 19.789392
2009-08-12 07:39:46 51°21.075 2°45.57 23.4395 0.083988 0.430529 19.789392
2009-08-12 07:39:51 51°21.089 2°45.557 23.4528 0.088517 0.454594 19.789392
2009-08-12 07:39:56 51°21.102 2°45.542 23.4318 0.084812 0.434917 19.789392
2009-08-12 07:40:01 51°21.115 2°45.528 23.45 0.086767 0.445293 19.824216
2009-08-12 07:40:06 51°21.128 2°45.513 23.4434 0.084503 0.433279 19.789392
2009-08-12 07:40:10 51°21.138 2°45.501 23.4474 0.085532 0.438741 19.789392
2009-08-12 07:40:16 51°21.154 2°45.484 23.4502 0.085532 0.438741 19.789392
2009-08-12 07:40:21 51°21.167 2°45.469 23.4516 0.086355 0.443113 19.789392
2009-08-12 07:40:26 51°21.18 2°45.454 23.4512 0.083165 0.426177 19.754568
2009-08-12 07:40:31 51°21.192 2°45.438 23.4595 0.082856 0.424534 19.789392
2009-08-12 07:40:35 51°21.203 2°45.426 23.4532 0.085532 0.438727 19.754568
2009-08-12 07:40:41 51°21.218 2°45.408 23.4573 0.083062 0.425611 19.789392
2009-08-12 07:40:46 51°21.231 2°45.392 23.4505 0.085223 0.437074 19.754568
2009-08-12 07:40:51 51°21.244 2°45.376 23.4734 0.085223 0.437074 19.754568
2009-08-12 07:40:55 51°21.254 2°45.364 23.4685 0.086253 0.442545 19.754568
2009-08-12 07:41:01 51°21.269 2°45.345 23.4572 0.084812 0.434903 19.754568
2009-08-12 07:41:06 51°21.282 2°45.329 23.4665 0.083783 0.429444 19.754568
2009-08-12 07:41:11 51°21.294 2°45.313 23.4597 0.085635 0.43928 19.754568
2009-08-12 07:41:16 51°21.307 2°45.297 23.468 0.085635 0.43928 19.754568
2009-08-12 07:41:21 51°21.32 2°45.282 23.4581 0.083783 0.429458 19.719744
2009-08-12 07:41:26 51°21.333 2°45.265 23.4618 0.083268 0.42673 19.754568
2009-08-12 07:41:31 51°21.345 2°45.249 23.4662 0.08687 0.445869 19.719744
2009-08-12 07:41:36 51°21.358 2°45.234 23.4434 0.08759 0.449698 19.719744
2009-08-12 07:41:41 51°21.371 2°45.218 23.4696 0.087385 0.448611 19.719744
2009-08-12 07:41:46 51°21.384 2°45.203 23.4579 0.087385 0.448611 19.719744
2009-08-12 07:41:51 51°21.397 2°45.186 23.4635 0.086664 0.444789 19.719744
2009-08-12 07:41:56 51°21.41 2°45.171 23.4628 0.08615 0.442063 19.719744
2009-08-12 07:42:01 51°21.423 2°45.155 23.4684 0.086458 0.443696 19.719744
2009-08-12 07:42:06 51°21.436 2°45.14 23.4533 0.083474 0.427842 19.719744
2009-08-12 07:42:11 51°21.449 2°45.124 23.4655 0.086458 0.443674 19.719744
2009-08-12 07:42:16 51°21.462 2°45.109 23.4665 0.086458 0.443674 19.719744
2009-08-12 07:42:21 51°21.474 2°45.093 23.4692 0.084606 0.433825 19.68492
2009-08-12 07:42:26 51°21.488 2°45.077 23.4725 0.087693 0.450223 19.719744
2009-08-12 07:42:31 51°21.501 2°45.062 23.4801 0.084503 0.433279 19.68492
2009-08-12 07:42:35 51°21.511 2°45.049 23.4691 0.086253 0.442567 19.68492
2009-08-12 07:42:41 51°21.527 2°45.03 23.4713 0.083886 0.430011 19.68492
2009-08-12 07:42:46 51°21.54 2°45.015 23.4704 0.083886 0.430011 19.68492
2009-08-12 07:42:51 51°21.554 2°45 23.4785 0.09253 0.476003 19.68492
2009-08-12 07:42:56 51°21.568 2°44.985 23.4587 0.084709 0.434406 19.68492
2009-08-12 07:43:01 51°21.581 2°44.97 23.4723 0.091604 0.471095 19.68492
2009-08-12 07:43:06 51°21.595 2°44.956 23.4716 0.089957 0.462337 19.68492
2009-08-12 07:43:11 51°21.609 2°44.942 23.4597 0.086253 0.442653 19.650096
2009-08-12 07:43:16 51°21.623 2°44.928 23.4791 0.086253 0.442653 19.650096
2009-08-12 07:43:21 51°21.637 2°44.914 23.4613 0.089957 0.46236 19.650096
2009-08-12 07:43:26 51°21.651 2°44.9 23.4803 0.08687 0.445934 19.650096
2009-08-12 07:43:31 51°21.665 2°44.886 23.4754 0.087899 0.451398 19.650096
2009-08-12 07:43:36 51°21.679 2°44.872 23.4719 0.087796 0.450858 19.650096
2009-08-12 07:43:41 51°21.693 2°44.859 23.4825 0.091707 0.471697 19.650096
2009-08-12 07:43:46 51°21.707 2°44.845 23.4845 0.091707 0.471697 19.650096
2009-08-12 07:43:51 51°21.721 2°44.83 23.4687 0.084503 0.43337 19.650096
2009-08-12 07:43:56 51°21.734 2°44.815 23.4935 0.089031 0.457428 19.650096
2009-08-12 07:44:01 51°21.748 2°44.799 23.4882 0.085841 0.440473 19.615272
2009-08-12 07:44:06 51°21.761 2°44.784 23.4762 0.087693 0.450311 19.615272
2009-08-12 07:44:11 51°21.773 2°44.767 23.4932 0.085944 0.441005 19.615272
2009-08-12 07:44:16 51°21.786 2°44.751 23.4829 0.085429 0.438258 19.615272
2009-08-12 07:44:21 51°21.799 2°44.735 23.4952 0.085429 0.438258 19.615272
2009-08-12 07:44:26 51°21.812 2°44.718 23.4916 0.088002 0.451931 19.615272
2009-08-12 07:44:31 51°21.824 2°44.702 23.483 0.085223 0.437159 19.615272
2009-08-12 07:44:36 51°21.837 2°44.685 23.4842 0.08934 0.459057 19.615272
2009-08-12 07:44:41 51°21.849 2°44.668 23.4933 0.085018 0.43608 19.615272
2009-08-12 07:44:46 51°21.862 2°44.651 23.4997 0.085018 0.43608 19.615272
2009-08-12 07:44:51 51°21.875 2°44.634 23.5072 0.084503 0.433349 19.580448
2009-08-12 07:44:55 51°21.885 2°44.621 23.4764 0.08615 0.442113 19.580448
2009-08-12 07:45:01 51°21.9 2°44.601 23.4867 0.08862 0.45526 19.580448
2009-08-12 07:45:06 51°21.912 2°44.584 23.5004 0.085532 0.438855 19.580448
2009-08-12 07:45:11 51°21.923 2°44.567 23.4986 0.087899 0.451427 19.580448
2009-08-12 07:45:15 51°21.933 2°44.554 23.4875 0.087899 0.451427 19.580448
2009-08-12 07:45:21 51°21.947 2°44.534 23.4995 0.088825 0.456348 19.545624
2009-08-12 07:45:26 51°21.958 2°44.518 23.4984 0.09006 0.462945 19.545624
2009-08-12 07:45:31 51°21.969 2°44.502 23.5019 0.091501 0.470623 19.545624
2009-08-12 07:45:36 51°21.981 2°44.487 23.4995 0.090781 0.466798 19.580448
2009-08-12 07:45:41 51°21.992 2°44.472 23.4971 0.089134 0.458036 19.545624
2009-08-12 07:45:46 51°22.002 2°44.457 23.5024 0.089134 0.458036 19.545624
2009-08-12 07:45:51 51°22.013 2°44.443 23.4907 0.088208 0.453114 19.545624
2009-08-12 07:45:56 51°22.022 2°44.43 23.506 0.091398 0.470105 19.545624
2009-08-12 07:46:01 51°22.031 2°44.418 23.5018 0.088722 0.455859 19.545624
2009-08-12 07:46:06 51°22.04 2°44.406 23.5075 0.089134 0.458058 19.510799
2009-08-12 07:46:11 51°22.049 2°44.395 23.5052 0.089443 0.459709 19.545624
2009-08-12 07:46:16 51°22.057 2°44.384 23.506 0.088414 0.454231 19.510799
2009-08-12 07:46:21 51°22.064 2°44.374 23.5137 0.088414 0.454231 19.510799
2009-08-12 07:46:26 51°22.072 2°44.364 23.515 0.089443 0.459717 19.510799
2009-08-12 07:46:31 51°22.079 2°44.355 23.5178 0.08759 0.449858 19.510799
2009-08-12 07:46:36 51°22.086 2°44.345 23.5181 0.087796 0.450953 19.510799
2009-08-12 07:46:41 51°22.093 2°44.337 23.5088 0.089134 0.45808 19.510799
2009-08-12 07:46:46 51°22.099 2°44.328 23.5164 0.089134 0.45808 19.510799
2009-08-12 07:46:51 51°22.106 2°44.319 23.5194 0.088105 0.452617 19.510799
2009-08-12 07:46:55 51°22.111 2°44.313 23.5206 0.088517 0.454808 19.475975
2009-08-12 07:47:01 51°22.118 2°44.304 23.5215 0.088002 0.452085 19.475975
2009-08-12 07:47:06 51°22.123 2°44.296 23.5176 0.087385 0.448807 19.475975
2009-08-12 07:47:11 51°22.129 2°44.288 23.524 0.090678 0.466348 19.475975
2009-08-12 07:47:16 51°22.134 2°44.28 23.5228 0.090678 0.466348 19.475975
2009-08-12 07:47:21 51°22.14 2°44.273 23.5182 0.087899 0.451552 19.475975
2009-08-12 07:47:26 51°22.145 2°44.265 23.5254 0.088517 0.454845 19.475975
2009-08-12 07:47:30 51°22.149 2°44.26 23.5266 0.090987 0.468017 19.441151
2009-08-12 07:47:36 51°22.156 2°44.25 23.5246 0.090163 0.463644 19.475975
2009-08-12 07:47:41 51°22.162 2°44.242 23.5285 0.087179 0.447756 19.475975
2009-08-12 07:47:46 51°22.169 2°44.234 23.5302 0.092839 0.477921 19.441151
2009-08-12 07:47:51 51°22.175 2°44.225 23.5325 0.092839 0.477921 19.441151
2009-08-12 07:47:56 51°22.182 2°44.216 23.5269 0.087693 0.450508 19.441151
2009-08-12 07:48:01 51°22.19 2°44.206 23.534 0.089134 0.458191 19.441151
2009-08-12 07:48:06 51°22.197 2°44.196 23.5222 0.088825 0.456555 19.406327
2009-08-12 07:48:11 51°22.205 2°44.185 23.5332 0.088722 0.456014 19.441151
2009-08-12 07:48:16 51°22.213 2°44.175 23.5308 0.088722 0.456014 19.441151
2009-08-12 07:48:21 51°22.221 2°44.164 23.5235 0.090266 0.464237 19.406327
2009-08-12 07:48:26 51°22.229 2°44.154 23.5324 0.087796 0.451085 19.406327
2009-08-12 07:48:31 51°22.237 2°44.143 23.5388 0.089443 0.459858 19.406327
2009-08-12 07:48:36 51°22.245 2°44.133 23.5357 0.088105 0.452742 19.406327
2009-08-12 07:48:41 51°22.252 2°44.123 23.5373 0.089031 0.457681 19.406327
2009-08-12 07:48:46 51°22.26 2°44.114 23.5341 0.089031 0.457681 19.406327
2009-08-12 07:48:50 51°22.265 2°44.106 23.5386 0.08687 0.446187 19.406327
2009-08-12 07:48:56 51°22.274 2°44.095 23.5379 0.088002 0.452209 19.406327
2009-08-12 07:49:01 51°22.281 2°44.086 23.5363 0.087899 0.451669 19.406327
2009-08-12 07:49:06 51°22.287 2°44.077 23.5365 0.088002 0.452216 19.406327
2009-08-12 07:49:11 51°22.294 2°44.069 23.5427 0.089957 0.46263 19.371503
2009-08-12 07:49:15 51°22.299 2°44.062 23.5377 0.089957 0.46263 19.371503
2009-08-12 07:49:21 51°22.307 2°44.052 23.5347 0.09006 0.463178 19.371503
2009-08-12 07:49:26 51°22.313 2°44.044 23.5363 0.088825 0.456614 19.406327
2009-08-12 07:49:31 51°22.319 2°44.036 23.5398 0.089237 0.458807 19.371503
2009-08-12 07:49:36 51°22.325 2°44.027 23.5458 0.087693 0.450588 19.371503
2009-08-12 07:49:41 51°22.331 2°44.019 23.5412 0.090163 0.463742 19.371503
2009-08-12 07:49:46 51°22.337 2°44.012 23.5461 0.087899 0.451676 19.371503
2009-08-12 07:49:51 51°22.343 2°44.004 23.543 0.087899 0.451676 19.371503
2009-08-12 07:49:56 51°22.349 2°43.996 23.5523 0.088105 0.452772 19.336679
2009-08-12 07:50:01 51°22.355 2°43.988 23.5513 0.087076 0.447296 19.371503
2009-08-12 07:50:06 51°22.361 2°43.981 23.5524 0.086458 0.444012 19.336679
2009-08-12 07:50:11 51°22.367 2°43.973 23.5553 0.089031 0.457703 19.336679
2009-08-12 07:50:16 51°22.373 2°43.965 23.5493 0.089031 0.457703 19.336679
2009-08-12 07:50:21 51°22.378 2°43.958 23.5518 0.088414 0.454415 19.336679
2009-08-12 07:50:25 51°22.383 2°43.951 23.5516 0.088105 0.452779 19.336679
2009-08-12 07:50:31 51°22.39 2°43.942 23.5507 0.08687 0.446208 19.336679
2009-08-12 07:50:36 51°22.395 2°43.935 23.5526 0.088928 0.457162 19.336679
2009-08-12 07:50:41 51°22.401 2°43.927 23.5491 0.088825 0.456629 19.301855
2009-08-12 07:50:46 51°22.406 2°43.919 23.5522 0.088825 0.456629 19.301855
2009-08-12 07:50:51 51°22.412 2°43.912 23.5517 0.08687 0.44623 19.301855
2009-08-12 07:50:56 51°22.417 2°43.905 23.557 0.088414 0.454452 19.301855
2009-08-12 07:51:01 51°22.423 2°43.897 23.552 0.085429 0.438592 19.301855
2009-08-12 07:51:06 51°22.428 2°43.89 23.5601 0.088928 0.457214 19.301855
2009-08-12 07:51:11 51°22.434 2°43.882 23.5606 0.08934 0.459414 19.301855
2009-08-12 07:51:16 51°22.44 2°43.875 23.5685 0.08934 0.459414 19.301855
2009-08-12 07:51:21 51°22.445 2°43.867 23.5607 0.085429 0.43862 19.301855
2009-08-12 07:51:26 51°22.451 2°43.86 23.5623 0.089443 0.459978 19.301855
2009-08-12 07:51:31 51°22.456 2°43.852 23.557 0.087282 0.448478 19.301855
2009-08-12 07:51:35 51°22.46 2°43.846 23.5657 0.087693 0.450676 19.301855
2009-08-12 07:51:41 51°22.467 2°43.837 23.5626 0.087179 0.447938 19.267031
2009-08-12 07:51:46 51°22.473 2°43.83 23.5634 0.087179 0.447938 19.267031
2009-08-12 07:51:51 51°22.478 2°43.822 23.5622 0.085635 0.439743 19.267031
2009-08-12 07:51:55 51°22.482 2°43.816 23.571 0.088723 0.456177 19.267031
2009-08-12 07:52:01 51°22.489 2°43.807 23.5733 0.088208 0.453452 19.267031
2009-08-12 07:52:06 51°22.496 2°43.799 23.5729 0.083886 0.430463 19.267031
2009-08-12 07:52:11 51°22.503 2°43.79 23.5752 0.090369 0.464967 19.267031